<?xml version="1.0" encoding="UTF-8" standalone="no" ?>
<gpx xmlns="http://www.topografix.com/GPX/1/1" xmlns:xsi="http://www.w3.org/2001/XMLSchema-instance" xsi:schemaLocation="http://www.topografix.com/GPX/1/1 http://www.topografix.com/GPX/1/1/gpx.xsd" version="1.1" creator="VisuGPX - https://www.visugpx.com">
  <metadata>
    <name>Payrin Augmontel</name>
    <desc><![CDATA[Très beau parcours , pas de difficulté agréable dans les bois]]></desc>
  </metadata>
  <trk>
    <name><![CDATA[Tracé 20 oct. 2016 14:31:33]]></name>
    <trkseg>
      <trkpt lat="43.54506" lon="2.35141">
        <ele>77.31978</ele>
        <time>2016-10-20T12:31:33Z</time>
      </trkpt>
      <trkpt lat="43.54506" lon="2.35141">
        <ele>77.31978</ele>
        <time>2016-10-20T12:31:43Z</time>
      </trkpt>
      <trkpt lat="43.54479" lon="2.35146">
        <ele>3.82084</ele>
        <time>2016-10-20T12:31:49Z</time>
      </trkpt>
      <trkpt lat="43.54573" lon="2.34993">
        <ele>248.01708</ele>
        <time>2016-10-20T12:31:53Z</time>
      </trkpt>
      <trkpt lat="43.54591" lon="2.34984">
        <ele>275.21634666667</ele>
        <time>2016-10-20T12:31:58Z</time>
      </trkpt>
      <trkpt lat="43.5459" lon="2.34996">
        <ele>272.81640666667</ele>
        <time>2016-10-20T12:35:33Z</time>
      </trkpt>
      <trkpt lat="43.54585" lon="2.34987">
        <ele>280.01658666667</ele>
        <time>2016-10-20T12:37:20Z</time>
      </trkpt>
      <trkpt lat="43.54592" lon="2.34979">
        <ele>273.41634</ele>
        <time>2016-10-20T12:38:11Z</time>
      </trkpt>
      <trkpt lat="43.54599" lon="2.34974">
        <ele>269.21604666667</ele>
        <time>2016-10-20T12:38:18Z</time>
      </trkpt>
      <trkpt lat="43.54606" lon="2.34968">
        <ele>269.21574666667</ele>
        <time>2016-10-20T12:38:25Z</time>
      </trkpt>
      <trkpt lat="43.54613" lon="2.3496">
        <ele>267.01549333333</ele>
        <time>2016-10-20T12:38:35Z</time>
      </trkpt>
      <trkpt lat="43.54618" lon="2.34952">
        <ele>263.91527333333</ele>
        <time>2016-10-20T12:38:44Z</time>
      </trkpt>
      <trkpt lat="43.54623" lon="2.34943">
        <ele>263.51509333333</ele>
        <time>2016-10-20T12:38:51Z</time>
      </trkpt>
      <trkpt lat="43.54626" lon="2.34932">
        <ele>262.61496666667</ele>
        <time>2016-10-20T12:38:59Z</time>
      </trkpt>
      <trkpt lat="43.54632" lon="2.34924">
        <ele>266.71471333333</ele>
        <time>2016-10-20T12:39:06Z</time>
      </trkpt>
      <trkpt lat="43.54639" lon="2.34918">
        <ele>268.41442666667</ele>
        <time>2016-10-20T12:39:12Z</time>
      </trkpt>
      <trkpt lat="43.54648" lon="2.34914">
        <ele>267.61408666667</ele>
        <time>2016-10-20T12:39:19Z</time>
      </trkpt>
      <trkpt lat="43.54657" lon="2.34915">
        <ele>267.81374</ele>
        <time>2016-10-20T12:39:28Z</time>
      </trkpt>
      <trkpt lat="43.54664" lon="2.34912">
        <ele>267.21342666667</ele>
        <time>2016-10-20T12:39:39Z</time>
      </trkpt>
      <trkpt lat="43.54672" lon="2.34909">
        <ele>264.31310666667</ele>
        <time>2016-10-20T12:39:47Z</time>
      </trkpt>
      <trkpt lat="43.5468" lon="2.34904">
        <ele>259.31278666667</ele>
        <time>2016-10-20T12:40:00Z</time>
      </trkpt>
      <trkpt lat="43.54686" lon="2.34902">
        <ele>256.31256</ele>
        <time>2016-10-20T12:40:07Z</time>
      </trkpt>
      <trkpt lat="43.54695" lon="2.34901">
        <ele>256.51221333333</ele>
        <time>2016-10-20T12:40:14Z</time>
      </trkpt>
      <trkpt lat="43.54703" lon="2.34898">
        <ele>254.31186666667</ele>
        <time>2016-10-20T12:40:23Z</time>
      </trkpt>
      <trkpt lat="43.54708" lon="2.34889">
        <ele>245.91167333333</ele>
        <time>2016-10-20T12:40:34Z</time>
      </trkpt>
      <trkpt lat="43.54714" lon="2.34885">
        <ele>245.51143333333</ele>
        <time>2016-10-20T12:40:38Z</time>
      </trkpt>
      <trkpt lat="43.54726" lon="2.34883">
        <ele>250.81095333333</ele>
        <time>2016-10-20T12:40:43Z</time>
      </trkpt>
      <trkpt lat="43.54733" lon="2.34877">
        <ele>249.91066666667</ele>
        <time>2016-10-20T12:40:51Z</time>
      </trkpt>
      <trkpt lat="43.54739" lon="2.34873">
        <ele>248.91043333333</ele>
        <time>2016-10-20T12:40:57Z</time>
      </trkpt>
      <trkpt lat="43.54748" lon="2.3487">
        <ele>254.11008666667</ele>
        <time>2016-10-20T12:41:04Z</time>
      </trkpt>
      <trkpt lat="43.54755" lon="2.34864">
        <ele>259.30982</ele>
        <time>2016-10-20T12:41:15Z</time>
      </trkpt>
      <trkpt lat="43.54762" lon="2.34859">
        <ele>263.50951333333</ele>
        <time>2016-10-20T12:41:24Z</time>
      </trkpt>
      <trkpt lat="43.5477" lon="2.34853">
        <ele>261.00920666667</ele>
        <time>2016-10-20T12:41:34Z</time>
      </trkpt>
      <trkpt lat="43.54778" lon="2.34848">
        <ele>261.20888666667</ele>
        <time>2016-10-20T12:41:41Z</time>
      </trkpt>
      <trkpt lat="43.5478" lon="2.34839">
        <ele>258.1088</ele>
        <time>2016-10-20T12:41:50Z</time>
      </trkpt>
      <trkpt lat="43.54795" lon="2.34837">
        <ele>269.6082</ele>
        <time>2016-10-20T12:41:54Z</time>
      </trkpt>
      <trkpt lat="43.54803" lon="2.3483">
        <ele>274.4079</ele>
        <time>2016-10-20T12:41:58Z</time>
      </trkpt>
      <trkpt lat="43.54809" lon="2.34823">
        <ele>277.40765333333</ele>
        <time>2016-10-20T12:42:03Z</time>
      </trkpt>
      <trkpt lat="43.54816" lon="2.34817">
        <ele>277.70737333333</ele>
        <time>2016-10-20T12:42:11Z</time>
      </trkpt>
      <trkpt lat="43.5482" lon="2.34807">
        <ele>277.0072</ele>
        <time>2016-10-20T12:42:19Z</time>
      </trkpt>
      <trkpt lat="43.54825" lon="2.34797">
        <ele>277.40700666667</ele>
        <time>2016-10-20T12:42:30Z</time>
      </trkpt>
      <trkpt lat="43.54831" lon="2.3479">
        <ele>281.90674666667</ele>
        <time>2016-10-20T12:42:39Z</time>
      </trkpt>
      <trkpt lat="43.54838" lon="2.34781">
        <ele>286.4065</ele>
        <time>2016-10-20T12:42:48Z</time>
      </trkpt>
      <trkpt lat="43.54841" lon="2.3477">
        <ele>286.00636666667</ele>
        <time>2016-10-20T12:42:58Z</time>
      </trkpt>
      <trkpt lat="43.54843" lon="2.3476">
        <ele>282.90627333333</ele>
        <time>2016-10-20T12:43:06Z</time>
      </trkpt>
      <trkpt lat="43.54847" lon="2.34751">
        <ele>280.20612</ele>
        <time>2016-10-20T12:43:13Z</time>
      </trkpt>
      <trkpt lat="43.54852" lon="2.34741">
        <ele>276.10594</ele>
        <time>2016-10-20T12:43:23Z</time>
      </trkpt>
      <trkpt lat="43.54856" lon="2.3473">
        <ele>276.30575333333</ele>
        <time>2016-10-20T12:43:31Z</time>
      </trkpt>
      <trkpt lat="43.54861" lon="2.3472">
        <ele>275.80557333333</ele>
        <time>2016-10-20T12:43:39Z</time>
      </trkpt>
      <trkpt lat="43.54865" lon="2.34713">
        <ele>275.60541333333</ele>
        <time>2016-10-20T12:43:51Z</time>
      </trkpt>
      <trkpt lat="43.54868" lon="2.34702">
        <ele>274.50527333333</ele>
        <time>2016-10-20T12:43:58Z</time>
      </trkpt>
      <trkpt lat="43.54869" lon="2.34691">
        <ele>271.40524666667</ele>
        <time>2016-10-20T12:44:10Z</time>
      </trkpt>
      <trkpt lat="43.54871" lon="2.3468">
        <ele>269.30514666667</ele>
        <time>2016-10-20T12:44:20Z</time>
      </trkpt>
      <trkpt lat="43.54871" lon="2.34667">
        <ele>264.30516666667</ele>
        <time>2016-10-20T12:44:33Z</time>
      </trkpt>
      <trkpt lat="43.54874" lon="2.34656">
        <ele>268.00504666667</ele>
        <time>2016-10-20T12:44:51Z</time>
      </trkpt>
      <trkpt lat="43.54877" lon="2.34646">
        <ele>274.30494</ele>
        <time>2016-10-20T12:45:06Z</time>
      </trkpt>
      <trkpt lat="43.54883" lon="2.34638">
        <ele>278.4047</ele>
        <time>2016-10-20T12:45:13Z</time>
      </trkpt>
      <trkpt lat="43.5489" lon="2.34631">
        <ele>283.60441333333</ele>
        <time>2016-10-20T12:45:23Z</time>
      </trkpt>
      <trkpt lat="43.54894" lon="2.34621">
        <ele>279.90424666667</ele>
        <time>2016-10-20T12:45:33Z</time>
      </trkpt>
      <trkpt lat="43.54901" lon="2.34614">
        <ele>284.10395333333</ele>
        <time>2016-10-20T12:45:42Z</time>
      </trkpt>
      <trkpt lat="43.54906" lon="2.34604">
        <ele>283.20376</ele>
        <time>2016-10-20T12:45:50Z</time>
      </trkpt>
      <trkpt lat="43.54908" lon="2.34595">
        <ele>275.40369333333</ele>
        <time>2016-10-20T12:46:16Z</time>
      </trkpt>
      <trkpt lat="43.54917" lon="2.3459">
        <ele>266.80334</ele>
        <time>2016-10-20T12:46:20Z</time>
      </trkpt>
      <trkpt lat="43.54922" lon="2.34587">
        <ele>265.50313333333</ele>
        <time>2016-10-20T12:46:31Z</time>
      </trkpt>
      <trkpt lat="43.54929" lon="2.34582">
        <ele>264.50282666667</ele>
        <time>2016-10-20T12:46:40Z</time>
      </trkpt>
      <trkpt lat="43.54937" lon="2.34579">
        <ele>265.40251333333</ele>
        <time>2016-10-20T12:46:49Z</time>
      </trkpt>
      <trkpt lat="43.54945" lon="2.34574">
        <ele>264.50218666667</ele>
        <time>2016-10-20T12:47:00Z</time>
      </trkpt>
      <trkpt lat="43.54953" lon="2.34569">
        <ele>263.1019</ele>
        <time>2016-10-20T12:47:06Z</time>
      </trkpt>
      <trkpt lat="43.5496" lon="2.34564">
        <ele>262.90160666667</ele>
        <time>2016-10-20T12:47:14Z</time>
      </trkpt>
      <trkpt lat="43.54967" lon="2.34558">
        <ele>262.20134</ele>
        <time>2016-10-20T12:47:21Z</time>
      </trkpt>
      <trkpt lat="43.54974" lon="2.34554">
        <ele>261.60104666667</ele>
        <time>2016-10-20T12:47:28Z</time>
      </trkpt>
      <trkpt lat="43.54981" lon="2.3455">
        <ele>259.90075333333</ele>
        <time>2016-10-20T12:47:33Z</time>
      </trkpt>
      <trkpt lat="43.54988" lon="2.34545">
        <ele>257.80046666667</ele>
        <time>2016-10-20T12:47:39Z</time>
      </trkpt>
      <trkpt lat="43.54994" lon="2.34542">
        <ele>255.80023333333</ele>
        <time>2016-10-20T12:47:44Z</time>
      </trkpt>
      <trkpt lat="43.55002" lon="2.34539">
        <ele>255.79991333333</ele>
        <time>2016-10-20T12:47:50Z</time>
      </trkpt>
      <trkpt lat="43.5501" lon="2.34533">
        <ele>254.19960666667</ele>
        <time>2016-10-20T12:47:58Z</time>
      </trkpt>
      <trkpt lat="43.55017" lon="2.34529">
        <ele>251.29932</ele>
        <time>2016-10-20T12:48:05Z</time>
      </trkpt>
      <trkpt lat="43.55026" lon="2.34525">
        <ele>252.09894666667</ele>
        <time>2016-10-20T12:48:10Z</time>
      </trkpt>
      <trkpt lat="43.55035" lon="2.34522">
        <ele>252.69861333333</ele>
        <time>2016-10-20T12:48:15Z</time>
      </trkpt>
      <trkpt lat="43.55043" lon="2.34518">
        <ele>250.99827333333</ele>
        <time>2016-10-20T12:48:23Z</time>
      </trkpt>
      <trkpt lat="43.55051" lon="2.34515">
        <ele>251.19796666667</ele>
        <time>2016-10-20T12:48:28Z</time>
      </trkpt>
      <trkpt lat="43.5506" lon="2.34514">
        <ele>251.89762</ele>
        <time>2016-10-20T12:48:35Z</time>
      </trkpt>
      <trkpt lat="43.55068" lon="2.34511">
        <ele>252.29728</ele>
        <time>2016-10-20T12:48:42Z</time>
      </trkpt>
      <trkpt lat="43.55076" lon="2.34508">
        <ele>250.59697333333</ele>
        <time>2016-10-20T12:48:49Z</time>
      </trkpt>
      <trkpt lat="43.55082" lon="2.34505">
        <ele>248.69670666667</ele>
        <time>2016-10-20T12:48:54Z</time>
      </trkpt>
      <trkpt lat="43.5509" lon="2.34501">
        <ele>251.09641333333</ele>
        <time>2016-10-20T12:48:58Z</time>
      </trkpt>
      <trkpt lat="43.55097" lon="2.34495">
        <ele>249.79612</ele>
        <time>2016-10-20T12:49:06Z</time>
      </trkpt>
      <trkpt lat="43.55104" lon="2.34489">
        <ele>247.29584666667</ele>
        <time>2016-10-20T12:49:14Z</time>
      </trkpt>
      <trkpt lat="43.55111" lon="2.34482">
        <ele>244.69556666667</ele>
        <time>2016-10-20T12:49:22Z</time>
      </trkpt>
      <trkpt lat="43.55119" lon="2.34476">
        <ele>243.69526</ele>
        <time>2016-10-20T12:49:29Z</time>
      </trkpt>
      <trkpt lat="43.55126" lon="2.34471">
        <ele>244.69496666667</ele>
        <time>2016-10-20T12:49:35Z</time>
      </trkpt>
      <trkpt lat="43.55134" lon="2.34467">
        <ele>244.19466</ele>
        <time>2016-10-20T12:49:41Z</time>
      </trkpt>
      <trkpt lat="43.55142" lon="2.34463">
        <ele>244.09434</ele>
        <time>2016-10-20T12:49:47Z</time>
      </trkpt>
      <trkpt lat="43.5515" lon="2.34459">
        <ele>243.59402</ele>
        <time>2016-10-20T12:49:53Z</time>
      </trkpt>
      <trkpt lat="43.55158" lon="2.34458">
        <ele>246.1937</ele>
        <time>2016-10-20T12:49:58Z</time>
      </trkpt>
      <trkpt lat="43.55166" lon="2.34455">
        <ele>247.49337333333</ele>
        <time>2016-10-20T12:50:04Z</time>
      </trkpt>
      <trkpt lat="43.55174" lon="2.34451">
        <ele>246.49304</ele>
        <time>2016-10-20T12:50:12Z</time>
      </trkpt>
      <trkpt lat="43.55182" lon="2.34446">
        <ele>247.19274</ele>
        <time>2016-10-20T12:50:18Z</time>
      </trkpt>
      <trkpt lat="43.55189" lon="2.34442">
        <ele>248.39242666667</ele>
        <time>2016-10-20T12:50:24Z</time>
      </trkpt>
      <trkpt lat="43.55197" lon="2.34437">
        <ele>249.39212</ele>
        <time>2016-10-20T12:50:29Z</time>
      </trkpt>
      <trkpt lat="43.55205" lon="2.34431">
        <ele>249.69181333333</ele>
        <time>2016-10-20T12:50:35Z</time>
      </trkpt>
      <trkpt lat="43.55213" lon="2.34435">
        <ele>250.8915</ele>
        <time>2016-10-20T12:51:06Z</time>
      </trkpt>
      <trkpt lat="43.55221" lon="2.34433">
        <ele>247.99117333333</ele>
        <time>2016-10-20T12:51:14Z</time>
      </trkpt>
      <trkpt lat="43.55229" lon="2.34429">
        <ele>244.99085333333</ele>
        <time>2016-10-20T12:51:23Z</time>
      </trkpt>
      <trkpt lat="43.55237" lon="2.34427">
        <ele>244.39053333333</ele>
        <time>2016-10-20T12:51:31Z</time>
      </trkpt>
      <trkpt lat="43.55245" lon="2.34424">
        <ele>245.19019333333</ele>
        <time>2016-10-20T12:51:39Z</time>
      </trkpt>
      <trkpt lat="43.55254" lon="2.34421">
        <ele>247.48984666667</ele>
        <time>2016-10-20T12:51:46Z</time>
      </trkpt>
      <trkpt lat="43.55262" lon="2.34419">
        <ele>248.38953333333</ele>
        <time>2016-10-20T12:51:52Z</time>
      </trkpt>
      <trkpt lat="43.55269" lon="2.34416">
        <ele>248.68924</ele>
        <time>2016-10-20T12:51:59Z</time>
      </trkpt>
      <trkpt lat="43.55276" lon="2.34412">
        <ele>248.68894666667</ele>
        <time>2016-10-20T12:52:05Z</time>
      </trkpt>
      <trkpt lat="43.55285" lon="2.3441">
        <ele>249.08860666667</ele>
        <time>2016-10-20T12:52:12Z</time>
      </trkpt>
      <trkpt lat="43.55293" lon="2.34406">
        <ele>248.0883</ele>
        <time>2016-10-20T12:52:19Z</time>
      </trkpt>
      <trkpt lat="43.553" lon="2.34404">
        <ele>248.78799333333</ele>
        <time>2016-10-20T12:52:25Z</time>
      </trkpt>
      <trkpt lat="43.55308" lon="2.344">
        <ele>248.58769333333</ele>
        <time>2016-10-20T12:52:33Z</time>
      </trkpt>
      <trkpt lat="43.55315" lon="2.34392">
        <ele>246.48742</ele>
        <time>2016-10-20T12:52:42Z</time>
      </trkpt>
      <trkpt lat="43.55322" lon="2.34385">
        <ele>244.28713333333</ele>
        <time>2016-10-20T12:52:50Z</time>
      </trkpt>
      <trkpt lat="43.55328" lon="2.34378">
        <ele>242.58687333333</ele>
        <time>2016-10-20T12:52:58Z</time>
      </trkpt>
      <trkpt lat="43.55337" lon="2.34374">
        <ele>241.58654</ele>
        <time>2016-10-20T12:53:07Z</time>
      </trkpt>
      <trkpt lat="43.55345" lon="2.34372">
        <ele>242.0862</ele>
        <time>2016-10-20T12:53:14Z</time>
      </trkpt>
      <trkpt lat="43.55352" lon="2.34368">
        <ele>243.08590666667</ele>
        <time>2016-10-20T12:53:19Z</time>
      </trkpt>
      <trkpt lat="43.55361" lon="2.34365">
        <ele>244.78556666667</ele>
        <time>2016-10-20T12:53:25Z</time>
      </trkpt>
      <trkpt lat="43.55369" lon="2.34361">
        <ele>244.08524</ele>
        <time>2016-10-20T12:53:31Z</time>
      </trkpt>
      <trkpt lat="43.55377" lon="2.34357">
        <ele>244.28492666667</ele>
        <time>2016-10-20T12:53:38Z</time>
      </trkpt>
      <trkpt lat="43.55384" lon="2.34353">
        <ele>243.38462666667</ele>
        <time>2016-10-20T12:53:44Z</time>
      </trkpt>
      <trkpt lat="43.55392" lon="2.3435">
        <ele>242.88433333333</ele>
        <time>2016-10-20T12:53:50Z</time>
      </trkpt>
      <trkpt lat="43.55399" lon="2.34346">
        <ele>243.08403333333</ele>
        <time>2016-10-20T12:53:56Z</time>
      </trkpt>
      <trkpt lat="43.55407" lon="2.34343">
        <ele>242.58370666667</ele>
        <time>2016-10-20T12:54:04Z</time>
      </trkpt>
      <trkpt lat="43.55415" lon="2.3434">
        <ele>242.08340666667</ele>
        <time>2016-10-20T12:54:12Z</time>
      </trkpt>
      <trkpt lat="43.55423" lon="2.34336">
        <ele>240.98308</ele>
        <time>2016-10-20T12:54:24Z</time>
      </trkpt>
      <trkpt lat="43.55431" lon="2.34333">
        <ele>241.08277333333</ele>
        <time>2016-10-20T12:54:32Z</time>
      </trkpt>
      <trkpt lat="43.55439" lon="2.34329">
        <ele>239.18244666667</ele>
        <time>2016-10-20T12:54:41Z</time>
      </trkpt>
      <trkpt lat="43.55445" lon="2.34322">
        <ele>236.78219333333</ele>
        <time>2016-10-20T12:54:50Z</time>
      </trkpt>
      <trkpt lat="43.55452" lon="2.34315">
        <ele>236.18192666667</ele>
        <time>2016-10-20T12:54:56Z</time>
      </trkpt>
      <trkpt lat="43.5546" lon="2.34309">
        <ele>234.28162</ele>
        <time>2016-10-20T12:55:02Z</time>
      </trkpt>
      <trkpt lat="43.55467" lon="2.34304">
        <ele>233.08133333333</ele>
        <time>2016-10-20T12:55:09Z</time>
      </trkpt>
      <trkpt lat="43.55475" lon="2.343">
        <ele>233.68100666667</ele>
        <time>2016-10-20T12:55:16Z</time>
      </trkpt>
      <trkpt lat="43.55483" lon="2.34296">
        <ele>234.0807</ele>
        <time>2016-10-20T12:55:21Z</time>
      </trkpt>
      <trkpt lat="43.5549" lon="2.34293">
        <ele>234.5804</ele>
        <time>2016-10-20T12:55:26Z</time>
      </trkpt>
      <trkpt lat="43.55497" lon="2.3429">
        <ele>234.58012</ele>
        <time>2016-10-20T12:55:30Z</time>
      </trkpt>
      <trkpt lat="43.55505" lon="2.34286">
        <ele>235.17982</ele>
        <time>2016-10-20T12:55:35Z</time>
      </trkpt>
      <trkpt lat="43.55513" lon="2.34281">
        <ele>236.07948666667</ele>
        <time>2016-10-20T12:55:41Z</time>
      </trkpt>
      <trkpt lat="43.55521" lon="2.34277">
        <ele>234.57916</ele>
        <time>2016-10-20T12:55:49Z</time>
      </trkpt>
      <trkpt lat="43.55529" lon="2.34273">
        <ele>234.07884</ele>
        <time>2016-10-20T12:55:56Z</time>
      </trkpt>
      <trkpt lat="43.55539" lon="2.3427">
        <ele>237.37843333333</ele>
        <time>2016-10-20T12:56:01Z</time>
      </trkpt>
      <trkpt lat="43.55547" lon="2.3427">
        <ele>236.47810666667</ele>
        <time>2016-10-20T12:56:08Z</time>
      </trkpt>
      <trkpt lat="43.55556" lon="2.3427">
        <ele>235.17776666667</ele>
        <time>2016-10-20T12:56:15Z</time>
      </trkpt>
      <trkpt lat="43.55564" lon="2.34272">
        <ele>233.87744666667</ele>
        <time>2016-10-20T12:56:23Z</time>
      </trkpt>
      <trkpt lat="43.55572" lon="2.34274">
        <ele>232.17713333333</ele>
        <time>2016-10-20T12:56:30Z</time>
      </trkpt>
      <trkpt lat="43.5558" lon="2.34277">
        <ele>230.7768</ele>
        <time>2016-10-20T12:56:38Z</time>
      </trkpt>
      <trkpt lat="43.55589" lon="2.34277">
        <ele>229.97646</ele>
        <time>2016-10-20T12:56:45Z</time>
      </trkpt>
      <trkpt lat="43.55597" lon="2.34277">
        <ele>230.07612</ele>
        <time>2016-10-20T12:56:52Z</time>
      </trkpt>
      <trkpt lat="43.55606" lon="2.34277">
        <ele>230.17577333333</ele>
        <time>2016-10-20T12:56:59Z</time>
      </trkpt>
      <trkpt lat="43.55614" lon="2.34277">
        <ele>229.37545333333</ele>
        <time>2016-10-20T12:57:05Z</time>
      </trkpt>
      <trkpt lat="43.55622" lon="2.34277">
        <ele>225.97513333333</ele>
        <time>2016-10-20T12:57:13Z</time>
      </trkpt>
      <trkpt lat="43.5563" lon="2.34277">
        <ele>223.57479333333</ele>
        <time>2016-10-20T12:57:21Z</time>
      </trkpt>
      <trkpt lat="43.55638" lon="2.34276">
        <ele>221.67449333333</ele>
        <time>2016-10-20T12:57:28Z</time>
      </trkpt>
      <trkpt lat="43.55645" lon="2.34277">
        <ele>217.47419333333</ele>
        <time>2016-10-20T12:57:37Z</time>
      </trkpt>
      <trkpt lat="43.55654" lon="2.34278">
        <ele>215.17385333333</ele>
        <time>2016-10-20T12:57:44Z</time>
      </trkpt>
      <trkpt lat="43.55662" lon="2.34279">
        <ele>212.97352</ele>
        <time>2016-10-20T12:57:52Z</time>
      </trkpt>
      <trkpt lat="43.55671" lon="2.34278">
        <ele>210.87318</ele>
        <time>2016-10-20T12:58:00Z</time>
      </trkpt>
      <trkpt lat="43.55679" lon="2.34278">
        <ele>211.17284</ele>
        <time>2016-10-20T12:58:08Z</time>
      </trkpt>
      <trkpt lat="43.55688" lon="2.34277">
        <ele>212.47249333333</ele>
        <time>2016-10-20T12:58:15Z</time>
      </trkpt>
      <trkpt lat="43.55697" lon="2.34278">
        <ele>210.67214</ele>
        <time>2016-10-20T12:58:24Z</time>
      </trkpt>
      <trkpt lat="43.55704" lon="2.34278">
        <ele>209.37184</ele>
        <time>2016-10-20T12:58:31Z</time>
      </trkpt>
      <trkpt lat="43.55713" lon="2.34278">
        <ele>209.27149333333</ele>
        <time>2016-10-20T12:58:39Z</time>
      </trkpt>
      <trkpt lat="43.55721" lon="2.34277">
        <ele>207.07116666667</ele>
        <time>2016-10-20T12:58:47Z</time>
      </trkpt>
      <trkpt lat="43.5573" lon="2.34277">
        <ele>205.97082</ele>
        <time>2016-10-20T12:58:54Z</time>
      </trkpt>
      <trkpt lat="43.55738" lon="2.34277">
        <ele>208.77047333333</ele>
        <time>2016-10-20T12:58:59Z</time>
      </trkpt>
      <trkpt lat="43.55747" lon="2.3428">
        <ele>211.47012666667</ele>
        <time>2016-10-20T12:59:05Z</time>
      </trkpt>
      <trkpt lat="43.55752" lon="2.34289">
        <ele>211.06991333333</ele>
        <time>2016-10-20T12:59:14Z</time>
      </trkpt>
      <trkpt lat="43.55757" lon="2.34298">
        <ele>208.86971333333</ele>
        <time>2016-10-20T12:59:25Z</time>
      </trkpt>
      <trkpt lat="43.55761" lon="2.34309">
        <ele>205.76957333333</ele>
        <time>2016-10-20T12:59:36Z</time>
      </trkpt>
      <trkpt lat="43.55764" lon="2.34319">
        <ele>201.76943333333</ele>
        <time>2016-10-20T12:59:45Z</time>
      </trkpt>
      <trkpt lat="43.55769" lon="2.34329">
        <ele>199.66925333333</ele>
        <time>2016-10-20T12:59:52Z</time>
      </trkpt>
      <trkpt lat="43.55773" lon="2.34339">
        <ele>198.26908</ele>
        <time>2016-10-20T13:00:00Z</time>
      </trkpt>
      <trkpt lat="43.55777" lon="2.3435">
        <ele>196.86894</ele>
        <time>2016-10-20T13:00:09Z</time>
      </trkpt>
      <trkpt lat="43.55782" lon="2.3436">
        <ele>198.06874</ele>
        <time>2016-10-20T13:00:17Z</time>
      </trkpt>
      <trkpt lat="43.55788" lon="2.34368">
        <ele>200.56849333333</ele>
        <time>2016-10-20T13:00:24Z</time>
      </trkpt>
      <trkpt lat="43.55793" lon="2.34376">
        <ele>200.06826666667</ele>
        <time>2016-10-20T13:00:38Z</time>
      </trkpt>
      <trkpt lat="43.55797" lon="2.34386">
        <ele>197.76813333333</ele>
        <time>2016-10-20T13:00:44Z</time>
      </trkpt>
      <trkpt lat="43.55798" lon="2.34398">
        <ele>192.66807333333</ele>
        <time>2016-10-20T13:00:54Z</time>
      </trkpt>
      <trkpt lat="43.55802" lon="2.34407">
        <ele>188.46794</ele>
        <time>2016-10-20T13:01:07Z</time>
      </trkpt>
      <trkpt lat="43.55807" lon="2.34414">
        <ele>180.96770666667</ele>
        <time>2016-10-20T13:01:17Z</time>
      </trkpt>
      <trkpt lat="43.55813" lon="2.34423">
        <ele>176.6675</ele>
        <time>2016-10-20T13:01:23Z</time>
      </trkpt>
      <trkpt lat="43.55817" lon="2.34433">
        <ele>172.66733333333</ele>
        <time>2016-10-20T13:01:30Z</time>
      </trkpt>
      <trkpt lat="43.5582" lon="2.34444">
        <ele>172.56718666667</ele>
        <time>2016-10-20T13:01:37Z</time>
      </trkpt>
      <trkpt lat="43.5582" lon="2.34455">
        <ele>174.16722</ele>
        <time>2016-10-20T13:01:42Z</time>
      </trkpt>
      <trkpt lat="43.55819" lon="2.34466">
        <ele>166.16723333333</ele>
        <time>2016-10-20T13:01:50Z</time>
      </trkpt>
      <trkpt lat="43.55824" lon="2.34475">
        <ele>165.56702666667</ele>
        <time>2016-10-20T13:01:55Z</time>
      </trkpt>
      <trkpt lat="43.55828" lon="2.34479">
        <ele>164.36689333333</ele>
        <time>2016-10-20T13:02:00Z</time>
      </trkpt>
      <trkpt lat="43.55845" lon="2.34483">
        <ele>181.36619333333</ele>
        <time>2016-10-20T13:02:04Z</time>
      </trkpt>
      <trkpt lat="43.5585" lon="2.34492">
        <ele>180.86599333333</ele>
        <time>2016-10-20T13:02:10Z</time>
      </trkpt>
      <trkpt lat="43.55857" lon="2.34499">
        <ele>173.06574</ele>
        <time>2016-10-20T13:02:22Z</time>
      </trkpt>
      <trkpt lat="43.55864" lon="2.34505">
        <ele>171.26545333333</ele>
        <time>2016-10-20T13:02:29Z</time>
      </trkpt>
      <trkpt lat="43.55865" lon="2.34517">
        <ele>172.86541333333</ele>
        <time>2016-10-20T13:02:36Z</time>
      </trkpt>
      <trkpt lat="43.55873" lon="2.34522">
        <ele>178.2651</ele>
        <time>2016-10-20T13:02:49Z</time>
      </trkpt>
      <trkpt lat="43.55881" lon="2.34519">
        <ele>178.46476666667</ele>
        <time>2016-10-20T13:02:57Z</time>
      </trkpt>
      <trkpt lat="43.55888" lon="2.34512">
        <ele>180.5645</ele>
        <time>2016-10-20T13:03:05Z</time>
      </trkpt>
      <trkpt lat="43.55894" lon="2.34503">
        <ele>181.76426</ele>
        <time>2016-10-20T13:03:11Z</time>
      </trkpt>
      <trkpt lat="43.55902" lon="2.34498">
        <ele>183.66394</ele>
        <time>2016-10-20T13:03:20Z</time>
      </trkpt>
      <trkpt lat="43.55908" lon="2.3449">
        <ele>185.2637</ele>
        <time>2016-10-20T13:03:29Z</time>
      </trkpt>
      <trkpt lat="43.55913" lon="2.34482">
        <ele>183.26346666667</ele>
        <time>2016-10-20T13:03:37Z</time>
      </trkpt>
      <trkpt lat="43.55916" lon="2.34471">
        <ele>178.66336666667</ele>
        <time>2016-10-20T13:03:47Z</time>
      </trkpt>
      <trkpt lat="43.5592" lon="2.34461">
        <ele>179.56319333333</ele>
        <time>2016-10-20T13:03:56Z</time>
      </trkpt>
      <trkpt lat="43.55924" lon="2.3445">
        <ele>183.76304666667</ele>
        <time>2016-10-20T13:04:04Z</time>
      </trkpt>
      <trkpt lat="43.5593" lon="2.34442">
        <ele>184.6628</ele>
        <time>2016-10-20T13:04:11Z</time>
      </trkpt>
      <trkpt lat="43.55935" lon="2.34434">
        <ele>188.16259333333</ele>
        <time>2016-10-20T13:04:16Z</time>
      </trkpt>
      <trkpt lat="43.55942" lon="2.34428">
        <ele>188.46232</ele>
        <time>2016-10-20T13:04:22Z</time>
      </trkpt>
      <trkpt lat="43.55947" lon="2.34422">
        <ele>185.56210666667</ele>
        <time>2016-10-20T13:04:29Z</time>
      </trkpt>
      <trkpt lat="43.55952" lon="2.34415">
        <ele>183.46192</ele>
        <time>2016-10-20T13:04:33Z</time>
      </trkpt>
      <trkpt lat="43.55961" lon="2.3441">
        <ele>182.56158</ele>
        <time>2016-10-20T13:04:38Z</time>
      </trkpt>
      <trkpt lat="43.55967" lon="2.34402">
        <ele>173.36131333333</ele>
        <time>2016-10-20T13:04:47Z</time>
      </trkpt>
      <trkpt lat="43.55971" lon="2.34391">
        <ele>171.16118</ele>
        <time>2016-10-20T13:04:55Z</time>
      </trkpt>
      <trkpt lat="43.55974" lon="2.34381">
        <ele>167.56102666667</ele>
        <time>2016-10-20T13:05:01Z</time>
      </trkpt>
      <trkpt lat="43.55978" lon="2.34371">
        <ele>173.06086666667</ele>
        <time>2016-10-20T13:05:06Z</time>
      </trkpt>
      <trkpt lat="43.55986" lon="2.34365">
        <ele>179.66057333333</ele>
        <time>2016-10-20T13:05:13Z</time>
      </trkpt>
      <trkpt lat="43.55994" lon="2.34366">
        <ele>178.26024666667</ele>
        <time>2016-10-20T13:05:20Z</time>
      </trkpt>
      <trkpt lat="43.56001" lon="2.34365">
        <ele>179.45996</ele>
        <time>2016-10-20T13:05:25Z</time>
      </trkpt>
      <trkpt lat="43.56009" lon="2.34358">
        <ele>180.95966</ele>
        <time>2016-10-20T13:05:30Z</time>
      </trkpt>
      <trkpt lat="43.56013" lon="2.34352">
        <ele>182.95946666667</ele>
        <time>2016-10-20T13:05:34Z</time>
      </trkpt>
      <trkpt lat="43.5602" lon="2.34345">
        <ele>183.4592</ele>
        <time>2016-10-20T13:05:40Z</time>
      </trkpt>
      <trkpt lat="43.56028" lon="2.3434">
        <ele>185.15888666667</ele>
        <time>2016-10-20T13:05:46Z</time>
      </trkpt>
      <trkpt lat="43.56035" lon="2.34334">
        <ele>185.85861333333</ele>
        <time>2016-10-20T13:05:52Z</time>
      </trkpt>
      <trkpt lat="43.5604" lon="2.34325">
        <ele>176.85842</ele>
        <time>2016-10-20T13:08:37Z</time>
      </trkpt>
      <trkpt lat="43.5604" lon="2.34313">
        <ele>173.95841333333</ele>
        <time>2016-10-20T13:08:46Z</time>
      </trkpt>
      <trkpt lat="43.56043" lon="2.34303">
        <ele>169.75828666667</ele>
        <time>2016-10-20T13:08:54Z</time>
      </trkpt>
      <trkpt lat="43.56044" lon="2.34291">
        <ele>170.45823333333</ele>
        <time>2016-10-20T13:08:59Z</time>
      </trkpt>
      <trkpt lat="43.56048" lon="2.34281">
        <ele>170.65806666667</ele>
        <time>2016-10-20T13:09:05Z</time>
      </trkpt>
      <trkpt lat="43.56054" lon="2.34272">
        <ele>169.95784666667</ele>
        <time>2016-10-20T13:09:13Z</time>
      </trkpt>
      <trkpt lat="43.56057" lon="2.34261">
        <ele>170.85771333333</ele>
        <time>2016-10-20T13:09:20Z</time>
      </trkpt>
      <trkpt lat="43.5606" lon="2.34251">
        <ele>171.95758666667</ele>
        <time>2016-10-20T13:09:27Z</time>
      </trkpt>
      <trkpt lat="43.56063" lon="2.34241">
        <ele>172.05749333333</ele>
        <time>2016-10-20T13:09:34Z</time>
      </trkpt>
      <trkpt lat="43.56065" lon="2.34229">
        <ele>172.0574</ele>
        <time>2016-10-20T13:09:41Z</time>
      </trkpt>
      <trkpt lat="43.56068" lon="2.34219">
        <ele>172.55728666667</ele>
        <time>2016-10-20T13:09:47Z</time>
      </trkpt>
      <trkpt lat="43.56071" lon="2.34209">
        <ele>171.25717333333</ele>
        <time>2016-10-20T13:09:54Z</time>
      </trkpt>
      <trkpt lat="43.56077" lon="2.342">
        <ele>171.95694</ele>
        <time>2016-10-20T13:10:01Z</time>
      </trkpt>
      <trkpt lat="43.56082" lon="2.34192">
        <ele>172.55672666667</ele>
        <time>2016-10-20T13:10:08Z</time>
      </trkpt>
      <trkpt lat="43.56088" lon="2.34183">
        <ele>172.35648</ele>
        <time>2016-10-20T13:10:16Z</time>
      </trkpt>
      <trkpt lat="43.56094" lon="2.34174">
        <ele>171.45625333333</ele>
        <time>2016-10-20T13:10:24Z</time>
      </trkpt>
      <trkpt lat="43.56099" lon="2.34165">
        <ele>173.15603333333</ele>
        <time>2016-10-20T13:10:31Z</time>
      </trkpt>
      <trkpt lat="43.56105" lon="2.34157">
        <ele>174.05582</ele>
        <time>2016-10-20T13:10:38Z</time>
      </trkpt>
      <trkpt lat="43.56109" lon="2.34147">
        <ele>176.35564666667</ele>
        <time>2016-10-20T13:10:46Z</time>
      </trkpt>
      <trkpt lat="43.56114" lon="2.34138">
        <ele>174.95542666667</ele>
        <time>2016-10-20T13:10:55Z</time>
      </trkpt>
      <trkpt lat="43.56121" lon="2.34131">
        <ele>173.15515333333</ele>
        <time>2016-10-20T13:11:03Z</time>
      </trkpt>
      <trkpt lat="43.56127" lon="2.34122">
        <ele>170.15494</ele>
        <time>2016-10-20T13:11:12Z</time>
      </trkpt>
      <trkpt lat="43.56133" lon="2.34114">
        <ele>173.75468666667</ele>
        <time>2016-10-20T13:11:17Z</time>
      </trkpt>
      <trkpt lat="43.56138" lon="2.34105">
        <ele>174.25447333333</ele>
        <time>2016-10-20T13:11:24Z</time>
      </trkpt>
      <trkpt lat="43.56145" lon="2.34097">
        <ele>174.75421333333</ele>
        <time>2016-10-20T13:11:31Z</time>
      </trkpt>
      <trkpt lat="43.56151" lon="2.3409">
        <ele>171.65394666667</ele>
        <time>2016-10-20T13:11:40Z</time>
      </trkpt>
      <trkpt lat="43.56158" lon="2.34083">
        <ele>173.2537</ele>
        <time>2016-10-20T13:11:46Z</time>
      </trkpt>
      <trkpt lat="43.56165" lon="2.3408">
        <ele>169.55339333333</ele>
        <time>2016-10-20T13:11:54Z</time>
      </trkpt>
      <trkpt lat="43.56172" lon="2.34074">
        <ele>168.55312</ele>
        <time>2016-10-20T13:12:01Z</time>
      </trkpt>
      <trkpt lat="43.56179" lon="2.3407">
        <ele>167.55285333333</ele>
        <time>2016-10-20T13:12:07Z</time>
      </trkpt>
      <trkpt lat="43.56187" lon="2.34066">
        <ele>170.85254</ele>
        <time>2016-10-20T13:12:12Z</time>
      </trkpt>
      <trkpt lat="43.56195" lon="2.34063">
        <ele>170.75221333333</ele>
        <time>2016-10-20T13:12:18Z</time>
      </trkpt>
      <trkpt lat="43.56202" lon="2.34058">
        <ele>171.95194</ele>
        <time>2016-10-20T13:12:25Z</time>
      </trkpt>
      <trkpt lat="43.56208" lon="2.34053">
        <ele>172.95166666667</ele>
        <time>2016-10-20T13:12:32Z</time>
      </trkpt>
      <trkpt lat="43.56216" lon="2.34049">
        <ele>168.25135333333</ele>
        <time>2016-10-20T13:12:40Z</time>
      </trkpt>
      <trkpt lat="43.56224" lon="2.34043">
        <ele>167.45105333333</ele>
        <time>2016-10-20T13:12:49Z</time>
      </trkpt>
      <trkpt lat="43.56228" lon="2.34042">
        <ele>169.65089333333</ele>
        <time>2016-10-20T13:12:57Z</time>
      </trkpt>
      <trkpt lat="43.56236" lon="2.34045">
        <ele>174.05054666667</ele>
        <time>2016-10-20T13:13:02Z</time>
      </trkpt>
      <trkpt lat="43.56243" lon="2.34052">
        <ele>175.25028666667</ele>
        <time>2016-10-20T13:13:11Z</time>
      </trkpt>
      <trkpt lat="43.56249" lon="2.3406">
        <ele>176.05004666667</ele>
        <time>2016-10-20T13:13:21Z</time>
      </trkpt>
      <trkpt lat="43.56251" lon="2.34072">
        <ele>177.54995333333</ele>
        <time>2016-10-20T13:13:30Z</time>
      </trkpt>
      <trkpt lat="43.56254" lon="2.34083">
        <ele>176.44984666667</ele>
        <time>2016-10-20T13:13:38Z</time>
      </trkpt>
      <trkpt lat="43.56258" lon="2.34094">
        <ele>178.44969333333</ele>
        <time>2016-10-20T13:13:47Z</time>
      </trkpt>
      <trkpt lat="43.5626" lon="2.34105">
        <ele>180.14958666667</ele>
        <time>2016-10-20T13:13:55Z</time>
      </trkpt>
      <trkpt lat="43.56263" lon="2.34116">
        <ele>182.34949333333</ele>
        <time>2016-10-20T13:14:02Z</time>
      </trkpt>
      <trkpt lat="43.56265" lon="2.34127">
        <ele>185.44938666667</ele>
        <time>2016-10-20T13:14:09Z</time>
      </trkpt>
      <trkpt lat="43.56268" lon="2.34138">
        <ele>187.94928666667</ele>
        <time>2016-10-20T13:14:19Z</time>
      </trkpt>
      <trkpt lat="43.56272" lon="2.34148">
        <ele>187.74913333333</ele>
        <time>2016-10-20T13:14:27Z</time>
      </trkpt>
      <trkpt lat="43.56277" lon="2.34158">
        <ele>186.64894</ele>
        <time>2016-10-20T13:14:35Z</time>
      </trkpt>
      <trkpt lat="43.56282" lon="2.34167">
        <ele>183.94872</ele>
        <time>2016-10-20T13:14:47Z</time>
      </trkpt>
      <trkpt lat="43.56286" lon="2.34178">
        <ele>182.34856</ele>
        <time>2016-10-20T13:14:55Z</time>
      </trkpt>
      <trkpt lat="43.56289" lon="2.34189">
        <ele>184.24844666667</ele>
        <time>2016-10-20T13:15:03Z</time>
      </trkpt>
      <trkpt lat="43.56293" lon="2.342">
        <ele>185.34829333333</ele>
        <time>2016-10-20T13:15:15Z</time>
      </trkpt>
      <trkpt lat="43.56291" lon="2.34211">
        <ele>188.34834666667</ele>
        <time>2016-10-20T13:15:23Z</time>
      </trkpt>
      <trkpt lat="43.56289" lon="2.34222">
        <ele>189.64842666667</ele>
        <time>2016-10-20T13:15:35Z</time>
      </trkpt>
      <trkpt lat="43.56287" lon="2.34234">
        <ele>191.14851333333</ele>
        <time>2016-10-20T13:15:42Z</time>
      </trkpt>
      <trkpt lat="43.56284" lon="2.34245">
        <ele>191.64862666667</ele>
        <time>2016-10-20T13:15:47Z</time>
      </trkpt>
      <trkpt lat="43.56282" lon="2.34257">
        <ele>193.14872666667</ele>
        <time>2016-10-20T13:15:56Z</time>
      </trkpt>
      <trkpt lat="43.5628" lon="2.34268">
        <ele>196.24882</ele>
        <time>2016-10-20T13:16:10Z</time>
      </trkpt>
      <trkpt lat="43.5628" lon="2.34279">
        <ele>198.04881333333</ele>
        <time>2016-10-20T13:16:20Z</time>
      </trkpt>
      <trkpt lat="43.56278" lon="2.34291">
        <ele>198.94886666667</ele>
        <time>2016-10-20T13:16:27Z</time>
      </trkpt>
      <trkpt lat="43.56277" lon="2.34302">
        <ele>202.24892666667</ele>
        <time>2016-10-20T13:16:38Z</time>
      </trkpt>
      <trkpt lat="43.56274" lon="2.34313">
        <ele>203.74904</ele>
        <time>2016-10-20T13:16:48Z</time>
      </trkpt>
      <trkpt lat="43.56273" lon="2.34325">
        <ele>204.8491</ele>
        <time>2016-10-20T13:16:58Z</time>
      </trkpt>
      <trkpt lat="43.56273" lon="2.34337">
        <ele>203.44907333333</ele>
        <time>2016-10-20T13:17:08Z</time>
      </trkpt>
      <trkpt lat="43.56273" lon="2.34349">
        <ele>202.84908</ele>
        <time>2016-10-20T13:17:16Z</time>
      </trkpt>
      <trkpt lat="43.56272" lon="2.3436">
        <ele>201.44913333333</ele>
        <time>2016-10-20T13:17:23Z</time>
      </trkpt>
      <trkpt lat="43.56272" lon="2.34371">
        <ele>200.04912</ele>
        <time>2016-10-20T13:17:28Z</time>
      </trkpt>
      <trkpt lat="43.56273" lon="2.34383">
        <ele>200.94906666667</ele>
        <time>2016-10-20T13:17:35Z</time>
      </trkpt>
      <trkpt lat="43.56272" lon="2.34395">
        <ele>199.54910666667</ele>
        <time>2016-10-20T13:18:02Z</time>
      </trkpt>
      <trkpt lat="43.56273" lon="2.34413">
        <ele>199.94908666667</ele>
        <time>2016-10-20T13:18:07Z</time>
      </trkpt>
      <trkpt lat="43.56273" lon="2.34425">
        <ele>205.04908666667</ele>
        <time>2016-10-20T13:18:19Z</time>
      </trkpt>
      <trkpt lat="43.56272" lon="2.34434">
        <ele>206.74914</ele>
        <time>2016-10-20T13:18:26Z</time>
      </trkpt>
      <trkpt lat="43.56269" lon="2.34445">
        <ele>206.94924</ele>
        <time>2016-10-20T13:18:32Z</time>
      </trkpt>
      <trkpt lat="43.56267" lon="2.34457">
        <ele>207.94932</ele>
        <time>2016-10-20T13:18:38Z</time>
      </trkpt>
      <trkpt lat="43.56266" lon="2.34468">
        <ele>209.64938</ele>
        <time>2016-10-20T13:18:44Z</time>
      </trkpt>
      <trkpt lat="43.56266" lon="2.34479">
        <ele>208.84935333333</ele>
        <time>2016-10-20T13:18:48Z</time>
      </trkpt>
      <trkpt lat="43.56267" lon="2.3449">
        <ele>207.24930666667</ele>
        <time>2016-10-20T13:18:55Z</time>
      </trkpt>
      <trkpt lat="43.56268" lon="2.345">
        <ele>202.94928</ele>
        <time>2016-10-20T13:19:04Z</time>
      </trkpt>
      <trkpt lat="43.56267" lon="2.34514">
        <ele>205.74932666667</ele>
        <time>2016-10-20T13:19:08Z</time>
      </trkpt>
      <trkpt lat="43.56266" lon="2.34525">
        <ele>204.44936666667</ele>
        <time>2016-10-20T13:19:12Z</time>
      </trkpt>
      <trkpt lat="43.56265" lon="2.34532">
        <ele>203.94942</ele>
        <time>2016-10-20T13:19:31Z</time>
      </trkpt>
      <trkpt lat="43.56257" lon="2.34542">
        <ele>209.24970666667</ele>
        <time>2016-10-20T13:19:36Z</time>
      </trkpt>
      <trkpt lat="43.56256" lon="2.34545">
        <ele>212.84974666667</ele>
        <time>2016-10-20T13:20:20Z</time>
      </trkpt>
      <trkpt lat="43.56258" lon="2.34559">
        <ele>222.54967333333</ele>
        <time>2016-10-20T13:20:24Z</time>
      </trkpt>
      <trkpt lat="43.56258" lon="2.34569">
        <ele>219.74968666667</ele>
        <time>2016-10-20T13:22:58Z</time>
      </trkpt>
      <trkpt lat="43.5626" lon="2.3458">
        <ele>215.74962</ele>
        <time>2016-10-20T13:23:11Z</time>
      </trkpt>
      <trkpt lat="43.56258" lon="2.34592">
        <ele>215.9497</ele>
        <time>2016-10-20T13:23:23Z</time>
      </trkpt>
      <trkpt lat="43.56257" lon="2.34604">
        <ele>216.24972</ele>
        <time>2016-10-20T13:23:33Z</time>
      </trkpt>
      <trkpt lat="43.56256" lon="2.34616">
        <ele>219.54974666667</ele>
        <time>2016-10-20T13:23:41Z</time>
      </trkpt>
      <trkpt lat="43.56256" lon="2.34627">
        <ele>224.64977333333</ele>
        <time>2016-10-20T13:24:03Z</time>
      </trkpt>
      <trkpt lat="43.56256" lon="2.34636">
        <ele>227.24976666667</ele>
        <time>2016-10-20T13:24:09Z</time>
      </trkpt>
      <trkpt lat="43.56254" lon="2.3465">
        <ele>231.34984</ele>
        <time>2016-10-20T13:24:14Z</time>
      </trkpt>
      <trkpt lat="43.56253" lon="2.34662">
        <ele>233.14989333333</ele>
        <time>2016-10-20T13:24:24Z</time>
      </trkpt>
      <trkpt lat="43.56253" lon="2.34673">
        <ele>234.4499</ele>
        <time>2016-10-20T13:24:32Z</time>
      </trkpt>
      <trkpt lat="43.56251" lon="2.34684">
        <ele>234.24998</ele>
        <time>2016-10-20T13:24:38Z</time>
      </trkpt>
      <trkpt lat="43.56251" lon="2.34695">
        <ele>230.74996666667</ele>
        <time>2016-10-20T13:24:42Z</time>
      </trkpt>
      <trkpt lat="43.56251" lon="2.34706">
        <ele>228.74996</ele>
        <time>2016-10-20T13:24:47Z</time>
      </trkpt>
      <trkpt lat="43.56251" lon="2.34717">
        <ele>229.34998</ele>
        <time>2016-10-20T13:24:53Z</time>
      </trkpt>
      <trkpt lat="43.5625" lon="2.34729">
        <ele>227.84998666667</ele>
        <time>2016-10-20T13:25:02Z</time>
      </trkpt>
      <trkpt lat="43.56249" lon="2.34739">
        <ele>228.65002666667</ele>
        <time>2016-10-20T13:25:07Z</time>
      </trkpt>
      <trkpt lat="43.56249" lon="2.34751">
        <ele>230.35005333333</ele>
        <time>2016-10-20T13:25:16Z</time>
      </trkpt>
      <trkpt lat="43.56248" lon="2.34763">
        <ele>234.75006666667</ele>
        <time>2016-10-20T13:25:27Z</time>
      </trkpt>
      <trkpt lat="43.56247" lon="2.34774">
        <ele>237.85013333333</ele>
        <time>2016-10-20T13:25:37Z</time>
      </trkpt>
      <trkpt lat="43.56247" lon="2.34786">
        <ele>240.15012666667</ele>
        <time>2016-10-20T13:25:44Z</time>
      </trkpt>
      <trkpt lat="43.56246" lon="2.34795">
        <ele>238.25014666667</ele>
        <time>2016-10-20T13:25:54Z</time>
      </trkpt>
      <trkpt lat="43.56248" lon="2.34807">
        <ele>240.3501</ele>
        <time>2016-10-20T13:26:02Z</time>
      </trkpt>
      <trkpt lat="43.56248" lon="2.34819">
        <ele>239.6501</ele>
        <time>2016-10-20T13:26:09Z</time>
      </trkpt>
      <trkpt lat="43.56246" lon="2.3483">
        <ele>239.95018</ele>
        <time>2016-10-20T13:26:17Z</time>
      </trkpt>
      <trkpt lat="43.56243" lon="2.34839">
        <ele>242.25029333333</ele>
        <time>2016-10-20T13:26:22Z</time>
      </trkpt>
      <trkpt lat="43.56241" lon="2.3485">
        <ele>246.25036</ele>
        <time>2016-10-20T13:26:28Z</time>
      </trkpt>
      <trkpt lat="43.56239" lon="2.34861">
        <ele>247.65043333333</ele>
        <time>2016-10-20T13:26:35Z</time>
      </trkpt>
      <trkpt lat="43.56239" lon="2.34873">
        <ele>247.65046</ele>
        <time>2016-10-20T13:26:40Z</time>
      </trkpt>
      <trkpt lat="43.56238" lon="2.34884">
        <ele>247.45046666667</ele>
        <time>2016-10-20T13:26:46Z</time>
      </trkpt>
      <trkpt lat="43.56237" lon="2.34895">
        <ele>247.55052666667</ele>
        <time>2016-10-20T13:26:52Z</time>
      </trkpt>
      <trkpt lat="43.56235" lon="2.34906">
        <ele>245.65059333333</ele>
        <time>2016-10-20T13:27:01Z</time>
      </trkpt>
      <trkpt lat="43.56234" lon="2.34917">
        <ele>244.55063333333</ele>
        <time>2016-10-20T13:27:06Z</time>
      </trkpt>
      <trkpt lat="43.56233" lon="2.34929">
        <ele>243.25069333333</ele>
        <time>2016-10-20T13:27:13Z</time>
      </trkpt>
      <trkpt lat="43.56233" lon="2.34931">
        <ele>243.3507</ele>
        <time>2016-10-20T13:28:02Z</time>
      </trkpt>
      <trkpt lat="43.56236" lon="2.34944">
        <ele>243.35058</ele>
        <time>2016-10-20T13:28:06Z</time>
      </trkpt>
      <trkpt lat="43.56234" lon="2.34955">
        <ele>247.05065333333</ele>
        <time>2016-10-20T13:28:56Z</time>
      </trkpt>
      <trkpt lat="43.56231" lon="2.34967">
        <ele>246.95074666667</ele>
        <time>2016-10-20T13:29:05Z</time>
      </trkpt>
      <trkpt lat="43.56227" lon="2.34977">
        <ele>250.45092666667</ele>
        <time>2016-10-20T13:29:13Z</time>
      </trkpt>
      <trkpt lat="43.5622" lon="2.34985">
        <ele>256.35119333333</ele>
        <time>2016-10-20T13:29:23Z</time>
      </trkpt>
      <trkpt lat="43.56214" lon="2.34993">
        <ele>258.45142666667</ele>
        <time>2016-10-20T13:29:30Z</time>
      </trkpt>
      <trkpt lat="43.56211" lon="2.35003">
        <ele>259.85158</ele>
        <time>2016-10-20T13:29:38Z</time>
      </trkpt>
      <trkpt lat="43.56207" lon="2.35012">
        <ele>262.05174</ele>
        <time>2016-10-20T13:29:46Z</time>
      </trkpt>
      <trkpt lat="43.56203" lon="2.35023">
        <ele>263.25186666667</ele>
        <time>2016-10-20T13:29:53Z</time>
      </trkpt>
      <trkpt lat="43.562" lon="2.35034">
        <ele>264.25200666667</ele>
        <time>2016-10-20T13:30:00Z</time>
      </trkpt>
      <trkpt lat="43.56196" lon="2.35045">
        <ele>265.35214666667</ele>
        <time>2016-10-20T13:30:09Z</time>
      </trkpt>
      <trkpt lat="43.56192" lon="2.35055">
        <ele>266.95231333333</ele>
        <time>2016-10-20T13:30:16Z</time>
      </trkpt>
      <trkpt lat="43.56188" lon="2.35064">
        <ele>268.35248666667</ele>
        <time>2016-10-20T13:30:23Z</time>
      </trkpt>
      <trkpt lat="43.56184" lon="2.35075">
        <ele>268.45262666667</ele>
        <time>2016-10-20T13:30:30Z</time>
      </trkpt>
      <trkpt lat="43.56183" lon="2.35087">
        <ele>269.35269333333</ele>
        <time>2016-10-20T13:30:38Z</time>
      </trkpt>
      <trkpt lat="43.56179" lon="2.35098">
        <ele>269.75282666667</ele>
        <time>2016-10-20T13:30:45Z</time>
      </trkpt>
      <trkpt lat="43.56175" lon="2.35109">
        <ele>270.55298666667</ele>
        <time>2016-10-20T13:30:52Z</time>
      </trkpt>
      <trkpt lat="43.56173" lon="2.3512">
        <ele>271.15307333333</ele>
        <time>2016-10-20T13:31:00Z</time>
      </trkpt>
      <trkpt lat="43.56171" lon="2.35131">
        <ele>270.65317333333</ele>
        <time>2016-10-20T13:31:08Z</time>
      </trkpt>
      <trkpt lat="43.56168" lon="2.35142">
        <ele>271.65328</ele>
        <time>2016-10-20T13:31:17Z</time>
      </trkpt>
      <trkpt lat="43.56164" lon="2.35151">
        <ele>271.45345333333</ele>
        <time>2016-10-20T13:31:24Z</time>
      </trkpt>
      <trkpt lat="43.56161" lon="2.35162">
        <ele>271.45357333333</ele>
        <time>2016-10-20T13:31:31Z</time>
      </trkpt>
      <trkpt lat="43.56159" lon="2.35173">
        <ele>270.85366</ele>
        <time>2016-10-20T13:31:38Z</time>
      </trkpt>
      <trkpt lat="43.56157" lon="2.35184">
        <ele>268.75372666667</ele>
        <time>2016-10-20T13:31:47Z</time>
      </trkpt>
      <trkpt lat="43.56154" lon="2.35194">
        <ele>267.25384666667</ele>
        <time>2016-10-20T13:31:53Z</time>
      </trkpt>
      <trkpt lat="43.56151" lon="2.35206">
        <ele>266.25398</ele>
        <time>2016-10-20T13:32:01Z</time>
      </trkpt>
      <trkpt lat="43.56147" lon="2.35216">
        <ele>267.15412666667</ele>
        <time>2016-10-20T13:32:08Z</time>
      </trkpt>
      <trkpt lat="43.56142" lon="2.35226">
        <ele>268.65430666667</ele>
        <time>2016-10-20T13:32:15Z</time>
      </trkpt>
      <trkpt lat="43.56139" lon="2.35237">
        <ele>269.75444</ele>
        <time>2016-10-20T13:32:23Z</time>
      </trkpt>
      <trkpt lat="43.56136" lon="2.35248">
        <ele>269.75456666667</ele>
        <time>2016-10-20T13:32:30Z</time>
      </trkpt>
      <trkpt lat="43.56133" lon="2.35258">
        <ele>268.95468</ele>
        <time>2016-10-20T13:32:36Z</time>
      </trkpt>
      <trkpt lat="43.56129" lon="2.35268">
        <ele>267.25486</ele>
        <time>2016-10-20T13:32:42Z</time>
      </trkpt>
      <trkpt lat="43.56125" lon="2.35279">
        <ele>267.65499333333</ele>
        <time>2016-10-20T13:32:49Z</time>
      </trkpt>
      <trkpt lat="43.56123" lon="2.35289">
        <ele>267.65509333333</ele>
        <time>2016-10-20T13:32:55Z</time>
      </trkpt>
      <trkpt lat="43.56119" lon="2.35301">
        <ele>264.55522666667</ele>
        <time>2016-10-20T13:33:04Z</time>
      </trkpt>
      <trkpt lat="43.56117" lon="2.35312">
        <ele>267.35533333333</ele>
        <time>2016-10-20T13:33:11Z</time>
      </trkpt>
      <trkpt lat="43.56114" lon="2.35323">
        <ele>269.65543333333</ele>
        <time>2016-10-20T13:33:17Z</time>
      </trkpt>
      <trkpt lat="43.56114" lon="2.35334">
        <ele>266.95544666667</ele>
        <time>2016-10-20T13:33:24Z</time>
      </trkpt>
      <trkpt lat="43.56112" lon="2.35346">
        <ele>261.35551333333</ele>
        <time>2016-10-20T13:33:32Z</time>
      </trkpt>
      <trkpt lat="43.56107" lon="2.35356">
        <ele>259.25572</ele>
        <time>2016-10-20T13:33:41Z</time>
      </trkpt>
      <trkpt lat="43.56103" lon="2.35365">
        <ele>252.3559</ele>
        <time>2016-10-20T13:37:37Z</time>
      </trkpt>
      <trkpt lat="43.561" lon="2.35376">
        <ele>252.95599333333</ele>
        <time>2016-10-20T13:37:46Z</time>
      </trkpt>
      <trkpt lat="43.56097" lon="2.35388">
        <ele>252.15613333333</ele>
        <time>2016-10-20T13:37:56Z</time>
      </trkpt>
      <trkpt lat="43.56097" lon="2.35399">
        <ele>257.25614</ele>
        <time>2016-10-20T13:38:07Z</time>
      </trkpt>
      <trkpt lat="43.56095" lon="2.3541">
        <ele>261.25618666667</ele>
        <time>2016-10-20T13:38:14Z</time>
      </trkpt>
      <trkpt lat="43.56094" lon="2.3542">
        <ele>263.85626</ele>
        <time>2016-10-20T13:38:20Z</time>
      </trkpt>
      <trkpt lat="43.56089" lon="2.35431">
        <ele>264.85643333333</ele>
        <time>2016-10-20T13:38:27Z</time>
      </trkpt>
      <trkpt lat="43.56084" lon="2.3544">
        <ele>267.25665333333</ele>
        <time>2016-10-20T13:38:36Z</time>
      </trkpt>
      <trkpt lat="43.56078" lon="2.35448">
        <ele>269.25686666667</ele>
        <time>2016-10-20T13:38:44Z</time>
      </trkpt>
      <trkpt lat="43.56074" lon="2.35458">
        <ele>271.45705333333</ele>
        <time>2016-10-20T13:38:52Z</time>
      </trkpt>
      <trkpt lat="43.56068" lon="2.35466">
        <ele>273.65726666667</ele>
        <time>2016-10-20T13:38:58Z</time>
      </trkpt>
      <trkpt lat="43.56063" lon="2.35476">
        <ele>273.95749333333</ele>
        <time>2016-10-20T13:39:05Z</time>
      </trkpt>
      <trkpt lat="43.5606" lon="2.35487">
        <ele>275.65761333333</ele>
        <time>2016-10-20T13:39:12Z</time>
      </trkpt>
      <trkpt lat="43.56053" lon="2.35494">
        <ele>277.35788666667</ele>
        <time>2016-10-20T13:39:20Z</time>
      </trkpt>
      <trkpt lat="43.56047" lon="2.355">
        <ele>278.15813333333</ele>
        <time>2016-10-20T13:39:26Z</time>
      </trkpt>
      <trkpt lat="43.5604" lon="2.35507">
        <ele>279.05840666667</ele>
        <time>2016-10-20T13:39:32Z</time>
      </trkpt>
      <trkpt lat="43.56033" lon="2.35513">
        <ele>280.35868666667</ele>
        <time>2016-10-20T13:39:39Z</time>
      </trkpt>
      <trkpt lat="43.56025" lon="2.35517">
        <ele>280.759</ele>
        <time>2016-10-20T13:39:46Z</time>
      </trkpt>
      <trkpt lat="43.56018" lon="2.35524">
        <ele>281.45928</ele>
        <time>2016-10-20T13:39:54Z</time>
      </trkpt>
      <trkpt lat="43.56011" lon="2.3553">
        <ele>279.45955333333</ele>
        <time>2016-10-20T13:40:03Z</time>
      </trkpt>
      <trkpt lat="43.56003" lon="2.35533">
        <ele>279.05988</ele>
        <time>2016-10-20T13:40:11Z</time>
      </trkpt>
      <trkpt lat="43.55996" lon="2.35537">
        <ele>278.36017333333</ele>
        <time>2016-10-20T13:40:17Z</time>
      </trkpt>
      <trkpt lat="43.55989" lon="2.35545">
        <ele>278.36042666667</ele>
        <time>2016-10-20T13:40:24Z</time>
      </trkpt>
      <trkpt lat="43.55982" lon="2.35551">
        <ele>279.76073333333</ele>
        <time>2016-10-20T13:40:32Z</time>
      </trkpt>
      <trkpt lat="43.55974" lon="2.35557">
        <ele>279.66103333333</ele>
        <time>2016-10-20T13:40:39Z</time>
      </trkpt>
      <trkpt lat="43.55969" lon="2.35566">
        <ele>281.06126</ele>
        <time>2016-10-20T13:40:46Z</time>
      </trkpt>
      <trkpt lat="43.55962" lon="2.35574">
        <ele>283.66151333333</ele>
        <time>2016-10-20T13:40:58Z</time>
      </trkpt>
      <trkpt lat="43.55958" lon="2.35583">
        <ele>285.36167333333</ele>
        <time>2016-10-20T13:41:05Z</time>
      </trkpt>
      <trkpt lat="43.55954" lon="2.35592">
        <ele>286.36184666667</ele>
        <time>2016-10-20T13:41:12Z</time>
      </trkpt>
      <trkpt lat="43.5595" lon="2.35603">
        <ele>286.86199333333</ele>
        <time>2016-10-20T13:41:20Z</time>
      </trkpt>
      <trkpt lat="43.55947" lon="2.35613">
        <ele>285.96212666667</ele>
        <time>2016-10-20T13:41:27Z</time>
      </trkpt>
      <trkpt lat="43.55943" lon="2.35623">
        <ele>285.76228666667</ele>
        <time>2016-10-20T13:41:34Z</time>
      </trkpt>
      <trkpt lat="43.55939" lon="2.35634">
        <ele>284.46243333333</ele>
        <time>2016-10-20T13:41:40Z</time>
      </trkpt>
      <trkpt lat="43.55937" lon="2.35645">
        <ele>284.06254</ele>
        <time>2016-10-20T13:41:48Z</time>
      </trkpt>
      <trkpt lat="43.55934" lon="2.35657">
        <ele>281.86264</ele>
        <time>2016-10-20T13:41:59Z</time>
      </trkpt>
      <trkpt lat="43.55931" lon="2.35667">
        <ele>281.96278</ele>
        <time>2016-10-20T13:42:06Z</time>
      </trkpt>
      <trkpt lat="43.55929" lon="2.35677">
        <ele>282.26286</ele>
        <time>2016-10-20T13:42:12Z</time>
      </trkpt>
      <trkpt lat="43.55926" lon="2.35688">
        <ele>281.86297333333</ele>
        <time>2016-10-20T13:42:19Z</time>
      </trkpt>
      <trkpt lat="43.55925" lon="2.357">
        <ele>280.76299333333</ele>
        <time>2016-10-20T13:42:26Z</time>
      </trkpt>
      <trkpt lat="43.55926" lon="2.35711">
        <ele>280.96297333333</ele>
        <time>2016-10-20T13:42:33Z</time>
      </trkpt>
      <trkpt lat="43.55926" lon="2.35722">
        <ele>282.26298</ele>
        <time>2016-10-20T13:42:40Z</time>
      </trkpt>
      <trkpt lat="43.55926" lon="2.35734">
        <ele>282.56298</ele>
        <time>2016-10-20T13:42:46Z</time>
      </trkpt>
      <trkpt lat="43.55927" lon="2.35745">
        <ele>281.96294</ele>
        <time>2016-10-20T13:42:54Z</time>
      </trkpt>
      <trkpt lat="43.55927" lon="2.35757">
        <ele>282.26294</ele>
        <time>2016-10-20T13:42:59Z</time>
      </trkpt>
      <trkpt lat="43.55927" lon="2.35769">
        <ele>283.76292666667</ele>
        <time>2016-10-20T13:43:06Z</time>
      </trkpt>
      <trkpt lat="43.55928" lon="2.35779">
        <ele>283.86288666667</ele>
        <time>2016-10-20T13:43:13Z</time>
      </trkpt>
      <trkpt lat="43.55929" lon="2.35789">
        <ele>284.36286</ele>
        <time>2016-10-20T13:43:18Z</time>
      </trkpt>
      <trkpt lat="43.55928" lon="2.35801">
        <ele>285.26286666667</ele>
        <time>2016-10-20T13:43:24Z</time>
      </trkpt>
      <trkpt lat="43.55927" lon="2.35812">
        <ele>286.56290666667</ele>
        <time>2016-10-20T13:43:30Z</time>
      </trkpt>
      <trkpt lat="43.55928" lon="2.35824">
        <ele>288.4629</ele>
        <time>2016-10-20T13:43:37Z</time>
      </trkpt>
      <trkpt lat="43.55927" lon="2.35836">
        <ele>288.36291333333</ele>
        <time>2016-10-20T13:43:44Z</time>
      </trkpt>
      <trkpt lat="43.55928" lon="2.35847">
        <ele>286.96288</ele>
        <time>2016-10-20T13:43:51Z</time>
      </trkpt>
      <trkpt lat="43.55928" lon="2.35859">
        <ele>282.16286666667</ele>
        <time>2016-10-20T13:44:01Z</time>
      </trkpt>
      <trkpt lat="43.55927" lon="2.3587">
        <ele>282.16294</ele>
        <time>2016-10-20T13:44:08Z</time>
      </trkpt>
      <trkpt lat="43.55926" lon="2.35881">
        <ele>281.06296</ele>
        <time>2016-10-20T13:44:14Z</time>
      </trkpt>
      <trkpt lat="43.55925" lon="2.35892">
        <ele>281.56299333333</ele>
        <time>2016-10-20T13:44:21Z</time>
      </trkpt>
      <trkpt lat="43.55924" lon="2.35903">
        <ele>280.76306</ele>
        <time>2016-10-20T13:44:27Z</time>
      </trkpt>
      <trkpt lat="43.55923" lon="2.35915">
        <ele>283.16308666667</ele>
        <time>2016-10-20T13:44:33Z</time>
      </trkpt>
      <trkpt lat="43.55921" lon="2.35925">
        <ele>283.16317333333</ele>
        <time>2016-10-20T13:44:38Z</time>
      </trkpt>
      <trkpt lat="43.55921" lon="2.35937">
        <ele>281.26316</ele>
        <time>2016-10-20T13:44:43Z</time>
      </trkpt>
      <trkpt lat="43.55919" lon="2.35947">
        <ele>283.06325333333</ele>
        <time>2016-10-20T13:44:50Z</time>
      </trkpt>
      <trkpt lat="43.55917" lon="2.35958">
        <ele>285.46332666667</ele>
        <time>2016-10-20T13:44:55Z</time>
      </trkpt>
      <trkpt lat="43.55915" lon="2.35968">
        <ele>286.1634</ele>
        <time>2016-10-20T13:45:01Z</time>
      </trkpt>
      <trkpt lat="43.55911" lon="2.35978">
        <ele>286.26354666667</ele>
        <time>2016-10-20T13:45:07Z</time>
      </trkpt>
      <trkpt lat="43.55907" lon="2.35989">
        <ele>288.06370666667</ele>
        <time>2016-10-20T13:45:15Z</time>
      </trkpt>
      <trkpt lat="43.55903" lon="2.36">
        <ele>289.06388</ele>
        <time>2016-10-20T13:45:22Z</time>
      </trkpt>
      <trkpt lat="43.55899" lon="2.36011">
        <ele>289.96404</ele>
        <time>2016-10-20T13:45:30Z</time>
      </trkpt>
      <trkpt lat="43.55897" lon="2.36021">
        <ele>289.16413333333</ele>
        <time>2016-10-20T13:45:37Z</time>
      </trkpt>
      <trkpt lat="43.55894" lon="2.36033">
        <ele>288.46424</ele>
        <time>2016-10-20T13:45:45Z</time>
      </trkpt>
      <trkpt lat="43.55889" lon="2.36043">
        <ele>287.56444</ele>
        <time>2016-10-20T13:45:52Z</time>
      </trkpt>
      <trkpt lat="43.55885" lon="2.36053">
        <ele>287.66462</ele>
        <time>2016-10-20T13:46:00Z</time>
      </trkpt>
      <trkpt lat="43.55879" lon="2.36061">
        <ele>287.86484</ele>
        <time>2016-10-20T13:46:07Z</time>
      </trkpt>
      <trkpt lat="43.55873" lon="2.36069">
        <ele>288.16506666667</ele>
        <time>2016-10-20T13:46:14Z</time>
      </trkpt>
      <trkpt lat="43.55867" lon="2.36077">
        <ele>285.66533333333</ele>
        <time>2016-10-20T13:46:32Z</time>
      </trkpt>
      <trkpt lat="43.5586" lon="2.36083">
        <ele>283.5656</ele>
        <time>2016-10-20T13:46:38Z</time>
      </trkpt>
      <trkpt lat="43.55853" lon="2.36091">
        <ele>280.66588</ele>
        <time>2016-10-20T13:46:45Z</time>
      </trkpt>
      <trkpt lat="43.55846" lon="2.36097">
        <ele>277.86614666667</ele>
        <time>2016-10-20T13:46:51Z</time>
      </trkpt>
      <trkpt lat="43.5584" lon="2.36106">
        <ele>282.46638666667</ele>
        <time>2016-10-20T13:46:58Z</time>
      </trkpt>
      <trkpt lat="43.55835" lon="2.36114">
        <ele>283.96660666667</ele>
        <time>2016-10-20T13:47:05Z</time>
      </trkpt>
      <trkpt lat="43.55829" lon="2.3612">
        <ele>284.26685333333</ele>
        <time>2016-10-20T13:47:12Z</time>
      </trkpt>
      <trkpt lat="43.55821" lon="2.36126">
        <ele>284.96716</ele>
        <time>2016-10-20T13:47:19Z</time>
      </trkpt>
      <trkpt lat="43.55813" lon="2.36129">
        <ele>283.4675</ele>
        <time>2016-10-20T13:47:29Z</time>
      </trkpt>
      <trkpt lat="43.55804" lon="2.36131">
        <ele>282.46783333333</ele>
        <time>2016-10-20T13:47:37Z</time>
      </trkpt>
      <trkpt lat="43.55797" lon="2.36132">
        <ele>281.16814</ele>
        <time>2016-10-20T13:47:45Z</time>
      </trkpt>
      <trkpt lat="43.55789" lon="2.36134">
        <ele>281.56845333333</ele>
        <time>2016-10-20T13:47:51Z</time>
      </trkpt>
      <trkpt lat="43.55781" lon="2.36139">
        <ele>282.86876</ele>
        <time>2016-10-20T13:47:58Z</time>
      </trkpt>
      <trkpt lat="43.55773" lon="2.36143">
        <ele>284.86906666667</ele>
        <time>2016-10-20T13:48:05Z</time>
      </trkpt>
      <trkpt lat="43.55767" lon="2.3615">
        <ele>287.96932</ele>
        <time>2016-10-20T13:48:11Z</time>
      </trkpt>
      <trkpt lat="43.55761" lon="2.36157">
        <ele>288.46957333333</ele>
        <time>2016-10-20T13:48:17Z</time>
      </trkpt>
      <trkpt lat="43.55754" lon="2.36165">
        <ele>288.16984</ele>
        <time>2016-10-20T13:48:24Z</time>
      </trkpt>
      <trkpt lat="43.55747" lon="2.36173">
        <ele>288.57010666667</ele>
        <time>2016-10-20T13:48:31Z</time>
      </trkpt>
      <trkpt lat="43.5574" lon="2.36176">
        <ele>294.77038666667</ele>
        <time>2016-10-20T13:49:10Z</time>
      </trkpt>
      <trkpt lat="43.55734" lon="2.36184">
        <ele>291.77064</ele>
        <time>2016-10-20T13:49:18Z</time>
      </trkpt>
      <trkpt lat="43.55728" lon="2.36193">
        <ele>287.97088</ele>
        <time>2016-10-20T13:49:26Z</time>
      </trkpt>
      <trkpt lat="43.55724" lon="2.36203">
        <ele>287.77106</ele>
        <time>2016-10-20T13:49:33Z</time>
      </trkpt>
      <trkpt lat="43.5572" lon="2.36215">
        <ele>288.27119333333</ele>
        <time>2016-10-20T13:49:40Z</time>
      </trkpt>
      <trkpt lat="43.55718" lon="2.36225">
        <ele>291.8713</ele>
        <time>2016-10-20T13:49:48Z</time>
      </trkpt>
      <trkpt lat="43.55714" lon="2.36236">
        <ele>291.87144</ele>
        <time>2016-10-20T13:49:57Z</time>
      </trkpt>
      <trkpt lat="43.55711" lon="2.36248">
        <ele>291.67155333333</ele>
        <time>2016-10-20T13:50:06Z</time>
      </trkpt>
      <trkpt lat="43.55709" lon="2.36258">
        <ele>295.67164666667</ele>
        <time>2016-10-20T13:50:16Z</time>
      </trkpt>
      <trkpt lat="43.55708" lon="2.36269">
        <ele>297.27166666667</ele>
        <time>2016-10-20T13:50:23Z</time>
      </trkpt>
      <trkpt lat="43.55709" lon="2.36281">
        <ele>301.27166</ele>
        <time>2016-10-20T13:50:30Z</time>
      </trkpt>
      <trkpt lat="43.55708" lon="2.36292">
        <ele>302.87169333333</ele>
        <time>2016-10-20T13:50:37Z</time>
      </trkpt>
      <trkpt lat="43.55708" lon="2.36303">
        <ele>307.1717</ele>
        <time>2016-10-20T13:50:46Z</time>
      </trkpt>
      <trkpt lat="43.55708" lon="2.36314">
        <ele>309.67168666667</ele>
        <time>2016-10-20T13:50:54Z</time>
      </trkpt>
      <trkpt lat="43.5571" lon="2.36325">
        <ele>309.97162</ele>
        <time>2016-10-20T13:51:00Z</time>
      </trkpt>
      <trkpt lat="43.5571" lon="2.36337">
        <ele>312.8716</ele>
        <time>2016-10-20T13:51:08Z</time>
      </trkpt>
      <trkpt lat="43.5571" lon="2.36349">
        <ele>317.17161333333</ele>
        <time>2016-10-20T13:52:30Z</time>
      </trkpt>
      <trkpt lat="43.55708" lon="2.36361">
        <ele>319.07169333333</ele>
        <time>2016-10-20T13:52:43Z</time>
      </trkpt>
      <trkpt lat="43.55707" lon="2.36372">
        <ele>321.57174</ele>
        <time>2016-10-20T13:52:51Z</time>
      </trkpt>
      <trkpt lat="43.55705" lon="2.36384">
        <ele>321.67179333333</ele>
        <time>2016-10-20T13:53:02Z</time>
      </trkpt>
      <trkpt lat="43.55704" lon="2.36396">
        <ele>323.57184666667</ele>
        <time>2016-10-20T13:53:12Z</time>
      </trkpt>
      <trkpt lat="43.55704" lon="2.36407">
        <ele>325.87186</ele>
        <time>2016-10-20T13:53:21Z</time>
      </trkpt>
      <trkpt lat="43.55702" lon="2.36419">
        <ele>326.17190666667</ele>
        <time>2016-10-20T13:53:30Z</time>
      </trkpt>
      <trkpt lat="43.55701" lon="2.36431">
        <ele>327.07196</ele>
        <time>2016-10-20T13:53:38Z</time>
      </trkpt>
      <trkpt lat="43.55699" lon="2.36443">
        <ele>327.27206</ele>
        <time>2016-10-20T13:53:48Z</time>
      </trkpt>
      <trkpt lat="43.55694" lon="2.3645">
        <ele>324.27224666667</ele>
        <time>2016-10-20T13:54:26Z</time>
      </trkpt>
      <trkpt lat="43.55693" lon="2.36463">
        <ele>327.0723</ele>
        <time>2016-10-20T13:54:30Z</time>
      </trkpt>
      <trkpt lat="43.55688" lon="2.36473">
        <ele>328.2725</ele>
        <time>2016-10-20T13:54:38Z</time>
      </trkpt>
      <trkpt lat="43.55683" lon="2.36483">
        <ele>330.37268</ele>
        <time>2016-10-20T13:54:48Z</time>
      </trkpt>
      <trkpt lat="43.55685" lon="2.36493">
        <ele>320.77261333333</ele>
        <time>2016-10-20T13:56:23Z</time>
      </trkpt>
      <trkpt lat="43.55686" lon="2.36504">
        <ele>318.27255333333</ele>
        <time>2016-10-20T14:00:59Z</time>
      </trkpt>
      <trkpt lat="43.55682" lon="2.36514">
        <ele>322.17273333333</ele>
        <time>2016-10-20T14:01:11Z</time>
      </trkpt>
      <trkpt lat="43.55676" lon="2.36522">
        <ele>324.77296</ele>
        <time>2016-10-20T14:01:20Z</time>
      </trkpt>
      <trkpt lat="43.5567" lon="2.36531">
        <ele>327.27319333333</ele>
        <time>2016-10-20T14:01:29Z</time>
      </trkpt>
      <trkpt lat="43.55666" lon="2.36541">
        <ele>330.07338</ele>
        <time>2016-10-20T14:01:39Z</time>
      </trkpt>
      <trkpt lat="43.55661" lon="2.36551">
        <ele>334.67357333333</ele>
        <time>2016-10-20T14:01:48Z</time>
      </trkpt>
      <trkpt lat="43.55657" lon="2.36562">
        <ele>336.67373333333</ele>
        <time>2016-10-20T14:01:55Z</time>
      </trkpt>
      <trkpt lat="43.55652" lon="2.36571">
        <ele>339.47391333333</ele>
        <time>2016-10-20T14:02:00Z</time>
      </trkpt>
      <trkpt lat="43.55646" lon="2.3658">
        <ele>340.17416</ele>
        <time>2016-10-20T14:02:07Z</time>
      </trkpt>
      <trkpt lat="43.55639" lon="2.36588">
        <ele>338.27443333333</ele>
        <time>2016-10-20T14:02:14Z</time>
      </trkpt>
      <trkpt lat="43.55635" lon="2.36597">
        <ele>337.77462</ele>
        <time>2016-10-20T14:02:21Z</time>
      </trkpt>
      <trkpt lat="43.55628" lon="2.36606">
        <ele>335.67486666667</ele>
        <time>2016-10-20T14:02:28Z</time>
      </trkpt>
      <trkpt lat="43.55625" lon="2.36617">
        <ele>337.47499333333</ele>
        <time>2016-10-20T14:02:35Z</time>
      </trkpt>
      <trkpt lat="43.55622" lon="2.36628">
        <ele>336.97512</ele>
        <time>2016-10-20T14:02:43Z</time>
      </trkpt>
      <trkpt lat="43.5562" lon="2.36639">
        <ele>336.37520666667</ele>
        <time>2016-10-20T14:02:50Z</time>
      </trkpt>
      <trkpt lat="43.55615" lon="2.36648">
        <ele>337.2754</ele>
        <time>2016-10-20T14:02:57Z</time>
      </trkpt>
      <trkpt lat="43.55609" lon="2.36657">
        <ele>339.57565333333</ele>
        <time>2016-10-20T14:03:03Z</time>
      </trkpt>
      <trkpt lat="43.55603" lon="2.36664">
        <ele>342.8759</ele>
        <time>2016-10-20T14:03:09Z</time>
      </trkpt>
      <trkpt lat="43.55597" lon="2.36673">
        <ele>347.67614</ele>
        <time>2016-10-20T14:03:17Z</time>
      </trkpt>
      <trkpt lat="43.55591" lon="2.36682">
        <ele>349.07635333333</ele>
        <time>2016-10-20T14:03:24Z</time>
      </trkpt>
      <trkpt lat="43.55589" lon="2.36693">
        <ele>346.77644</ele>
        <time>2016-10-20T14:03:33Z</time>
      </trkpt>
      <trkpt lat="43.55587" lon="2.36703">
        <ele>345.07654</ele>
        <time>2016-10-20T14:03:41Z</time>
      </trkpt>
      <trkpt lat="43.55582" lon="2.36714">
        <ele>346.87670666667</ele>
        <time>2016-10-20T14:03:48Z</time>
      </trkpt>
      <trkpt lat="43.55577" lon="2.36724">
        <ele>348.07691333333</ele>
        <time>2016-10-20T14:03:56Z</time>
      </trkpt>
      <trkpt lat="43.55575" lon="2.36735">
        <ele>348.777</ele>
        <time>2016-10-20T14:04:03Z</time>
      </trkpt>
      <trkpt lat="43.55572" lon="2.36745">
        <ele>350.37713333333</ele>
        <time>2016-10-20T14:04:11Z</time>
      </trkpt>
      <trkpt lat="43.55568" lon="2.36756">
        <ele>349.47726666667</ele>
        <time>2016-10-20T14:04:22Z</time>
      </trkpt>
      <trkpt lat="43.55564" lon="2.36766">
        <ele>347.67742666667</ele>
        <time>2016-10-20T14:04:31Z</time>
      </trkpt>
      <trkpt lat="43.55561" lon="2.36778">
        <ele>347.07754666667</ele>
        <time>2016-10-20T14:04:40Z</time>
      </trkpt>
      <trkpt lat="43.55558" lon="2.36787">
        <ele>347.67769333333</ele>
        <time>2016-10-20T14:04:46Z</time>
      </trkpt>
      <trkpt lat="43.55553" lon="2.36797">
        <ele>349.67788</ele>
        <time>2016-10-20T14:04:54Z</time>
      </trkpt>
      <trkpt lat="43.5555" lon="2.36808">
        <ele>349.87799333333</ele>
        <time>2016-10-20T14:05:02Z</time>
      </trkpt>
      <trkpt lat="43.55547" lon="2.36818">
        <ele>351.77813333333</ele>
        <time>2016-10-20T14:05:09Z</time>
      </trkpt>
      <trkpt lat="43.55544" lon="2.36828">
        <ele>352.47825333333</ele>
        <time>2016-10-20T14:05:17Z</time>
      </trkpt>
      <trkpt lat="43.55541" lon="2.3684">
        <ele>352.17834666667</ele>
        <time>2016-10-20T14:05:25Z</time>
      </trkpt>
      <trkpt lat="43.55541" lon="2.36851">
        <ele>353.07837333333</ele>
        <time>2016-10-20T14:05:36Z</time>
      </trkpt>
      <trkpt lat="43.55539" lon="2.36863">
        <ele>355.07845333333</ele>
        <time>2016-10-20T14:05:48Z</time>
      </trkpt>
      <trkpt lat="43.55534" lon="2.36874">
        <ele>354.07862666667</ele>
        <time>2016-10-20T14:05:57Z</time>
      </trkpt>
      <trkpt lat="43.55531" lon="2.36884">
        <ele>354.07878</ele>
        <time>2016-10-20T14:06:08Z</time>
      </trkpt>
      <trkpt lat="43.55526" lon="2.36893">
        <ele>351.27896666667</ele>
        <time>2016-10-20T14:06:15Z</time>
      </trkpt>
      <trkpt lat="43.55521" lon="2.36903">
        <ele>348.27917333333</ele>
        <time>2016-10-20T14:06:23Z</time>
      </trkpt>
      <trkpt lat="43.55517" lon="2.36913">
        <ele>344.97932</ele>
        <time>2016-10-20T14:06:29Z</time>
      </trkpt>
      <trkpt lat="43.55514" lon="2.36924">
        <ele>342.97943333333</ele>
        <time>2016-10-20T14:06:37Z</time>
      </trkpt>
      <trkpt lat="43.55511" lon="2.36935">
        <ele>340.77958</ele>
        <time>2016-10-20T14:06:45Z</time>
      </trkpt>
      <trkpt lat="43.55506" lon="2.36944">
        <ele>340.37978</ele>
        <time>2016-10-20T14:06:54Z</time>
      </trkpt>
      <trkpt lat="43.55501" lon="2.36953">
        <ele>340.37994666667</ele>
        <time>2016-10-20T14:06:59Z</time>
      </trkpt>
      <trkpt lat="43.55496" lon="2.36963">
        <ele>338.98016</ele>
        <time>2016-10-20T14:07:07Z</time>
      </trkpt>
      <trkpt lat="43.55494" lon="2.36973">
        <ele>340.38024</ele>
        <time>2016-10-20T14:07:16Z</time>
      </trkpt>
      <trkpt lat="43.55491" lon="2.36984">
        <ele>341.78035333333</ele>
        <time>2016-10-20T14:07:22Z</time>
      </trkpt>
      <trkpt lat="43.55485" lon="2.36992">
        <ele>343.88058666667</ele>
        <time>2016-10-20T14:07:30Z</time>
      </trkpt>
      <trkpt lat="43.55482" lon="2.37003">
        <ele>342.68071333333</ele>
        <time>2016-10-20T14:07:40Z</time>
      </trkpt>
      <trkpt lat="43.5548" lon="2.37014">
        <ele>343.38082</ele>
        <time>2016-10-20T14:07:47Z</time>
      </trkpt>
      <trkpt lat="43.55474" lon="2.37022">
        <ele>342.78102666667</ele>
        <time>2016-10-20T14:07:53Z</time>
      </trkpt>
      <trkpt lat="43.55469" lon="2.3703">
        <ele>344.18125333333</ele>
        <time>2016-10-20T14:08:00Z</time>
      </trkpt>
      <trkpt lat="43.55464" lon="2.37039">
        <ele>344.78146</ele>
        <time>2016-10-20T14:08:07Z</time>
      </trkpt>
      <trkpt lat="43.55459" lon="2.37048">
        <ele>344.58164</ele>
        <time>2016-10-20T14:08:15Z</time>
      </trkpt>
      <trkpt lat="43.55455" lon="2.37058">
        <ele>344.08182</ele>
        <time>2016-10-20T14:08:22Z</time>
      </trkpt>
      <trkpt lat="43.5545" lon="2.37065">
        <ele>346.08201333333</ele>
        <time>2016-10-20T14:08:29Z</time>
      </trkpt>
      <trkpt lat="43.55447" lon="2.37077">
        <ele>346.88211333333</ele>
        <time>2016-10-20T14:08:37Z</time>
      </trkpt>
      <trkpt lat="43.55442" lon="2.37086">
        <ele>348.08231333333</ele>
        <time>2016-10-20T14:08:44Z</time>
      </trkpt>
      <trkpt lat="43.55436" lon="2.37094">
        <ele>349.28254666667</ele>
        <time>2016-10-20T14:08:50Z</time>
      </trkpt>
      <trkpt lat="43.5543" lon="2.37102">
        <ele>350.68279333333</ele>
        <time>2016-10-20T14:08:57Z</time>
      </trkpt>
      <trkpt lat="43.55427" lon="2.37114">
        <ele>351.08293333333</ele>
        <time>2016-10-20T14:09:05Z</time>
      </trkpt>
      <trkpt lat="43.55424" lon="2.37124">
        <ele>351.48305333333</ele>
        <time>2016-10-20T14:09:12Z</time>
      </trkpt>
      <trkpt lat="43.55418" lon="2.37132">
        <ele>352.28327333333</ele>
        <time>2016-10-20T14:09:19Z</time>
      </trkpt>
      <trkpt lat="43.55413" lon="2.37142">
        <ele>354.28347333333</ele>
        <time>2016-10-20T14:09:26Z</time>
      </trkpt>
      <trkpt lat="43.55408" lon="2.37151">
        <ele>354.38369333333</ele>
        <time>2016-10-20T14:09:32Z</time>
      </trkpt>
      <trkpt lat="43.55404" lon="2.37162">
        <ele>354.78384666667</ele>
        <time>2016-10-20T14:09:39Z</time>
      </trkpt>
      <trkpt lat="43.55399" lon="2.37172">
        <ele>356.08406</ele>
        <time>2016-10-20T14:09:46Z</time>
      </trkpt>
      <trkpt lat="43.55393" lon="2.3718">
        <ele>355.98427333333</ele>
        <time>2016-10-20T14:09:52Z</time>
      </trkpt>
      <trkpt lat="43.55388" lon="2.37189">
        <ele>355.78446666667</ele>
        <time>2016-10-20T14:10:00Z</time>
      </trkpt>
      <trkpt lat="43.55384" lon="2.37198">
        <ele>355.18463333333</ele>
        <time>2016-10-20T14:10:07Z</time>
      </trkpt>
      <trkpt lat="43.55379" lon="2.37206">
        <ele>355.38486</ele>
        <time>2016-10-20T14:10:14Z</time>
      </trkpt>
      <trkpt lat="43.55373" lon="2.37213">
        <ele>356.1851</ele>
        <time>2016-10-20T14:10:21Z</time>
      </trkpt>
      <trkpt lat="43.55366" lon="2.3722">
        <ele>356.48535333333</ele>
        <time>2016-10-20T14:10:28Z</time>
      </trkpt>
      <trkpt lat="43.5536" lon="2.37227">
        <ele>356.5856</ele>
        <time>2016-10-20T14:10:35Z</time>
      </trkpt>
      <trkpt lat="43.55354" lon="2.37236">
        <ele>357.68582666667</ele>
        <time>2016-10-20T14:10:42Z</time>
      </trkpt>
      <trkpt lat="43.55347" lon="2.37242">
        <ele>356.38610666667</ele>
        <time>2016-10-20T14:10:50Z</time>
      </trkpt>
      <trkpt lat="43.5534" lon="2.37249">
        <ele>356.78639333333</ele>
        <time>2016-10-20T14:11:01Z</time>
      </trkpt>
      <trkpt lat="43.55335" lon="2.37258">
        <ele>355.48658666667</ele>
        <time>2016-10-20T14:11:09Z</time>
      </trkpt>
      <trkpt lat="43.5533" lon="2.37265">
        <ele>355.78682</ele>
        <time>2016-10-20T14:11:16Z</time>
      </trkpt>
      <trkpt lat="43.55323" lon="2.37274">
        <ele>357.18706666667</ele>
        <time>2016-10-20T14:11:26Z</time>
      </trkpt>
      <trkpt lat="43.5532" lon="2.37286">
        <ele>357.18718666667</ele>
        <time>2016-10-20T14:11:36Z</time>
      </trkpt>
      <trkpt lat="43.55315" lon="2.37295">
        <ele>356.98740666667</ele>
        <time>2016-10-20T14:11:44Z</time>
      </trkpt>
      <trkpt lat="43.55311" lon="2.37304">
        <ele>357.98757333333</ele>
        <time>2016-10-20T14:11:51Z</time>
      </trkpt>
      <trkpt lat="43.55306" lon="2.37313">
        <ele>357.68776</ele>
        <time>2016-10-20T14:11:58Z</time>
      </trkpt>
      <trkpt lat="43.55301" lon="2.37321">
        <ele>359.18796</ele>
        <time>2016-10-20T14:12:04Z</time>
      </trkpt>
      <trkpt lat="43.55295" lon="2.37329">
        <ele>359.88822</ele>
        <time>2016-10-20T14:12:11Z</time>
      </trkpt>
      <trkpt lat="43.55289" lon="2.37337">
        <ele>360.38846</ele>
        <time>2016-10-20T14:12:18Z</time>
      </trkpt>
      <trkpt lat="43.55283" lon="2.37346">
        <ele>361.18867333333</ele>
        <time>2016-10-20T14:12:25Z</time>
      </trkpt>
      <trkpt lat="43.55279" lon="2.37356">
        <ele>360.68884666667</ele>
        <time>2016-10-20T14:12:33Z</time>
      </trkpt>
      <trkpt lat="43.55274" lon="2.37366">
        <ele>360.88904666667</ele>
        <time>2016-10-20T14:12:42Z</time>
      </trkpt>
      <trkpt lat="43.55268" lon="2.37374">
        <ele>362.78928</ele>
        <time>2016-10-20T14:12:50Z</time>
      </trkpt>
      <trkpt lat="43.55263" lon="2.37384">
        <ele>362.78948</ele>
        <time>2016-10-20T14:12:59Z</time>
      </trkpt>
      <trkpt lat="43.55258" lon="2.37393">
        <ele>362.6897</ele>
        <time>2016-10-20T14:13:08Z</time>
      </trkpt>
      <trkpt lat="43.55252" lon="2.37403">
        <ele>362.78990666667</ele>
        <time>2016-10-20T14:13:18Z</time>
      </trkpt>
      <trkpt lat="43.55248" lon="2.37412">
        <ele>359.5901</ele>
        <time>2016-10-20T14:13:27Z</time>
      </trkpt>
      <trkpt lat="43.55241" lon="2.3742">
        <ele>358.19036</ele>
        <time>2016-10-20T14:13:38Z</time>
      </trkpt>
      <trkpt lat="43.55235" lon="2.37429">
        <ele>359.3906</ele>
        <time>2016-10-20T14:13:46Z</time>
      </trkpt>
      <trkpt lat="43.55228" lon="2.37436">
        <ele>359.39087333333</ele>
        <time>2016-10-20T14:13:55Z</time>
      </trkpt>
      <trkpt lat="43.55222" lon="2.37445">
        <ele>359.29112</ele>
        <time>2016-10-20T14:14:02Z</time>
      </trkpt>
      <trkpt lat="43.55216" lon="2.37453">
        <ele>360.69137333333</ele>
        <time>2016-10-20T14:14:12Z</time>
      </trkpt>
      <trkpt lat="43.5521" lon="2.37462">
        <ele>362.09160666667</ele>
        <time>2016-10-20T14:14:20Z</time>
      </trkpt>
      <trkpt lat="43.55205" lon="2.37471">
        <ele>361.49179333333</ele>
        <time>2016-10-20T14:14:27Z</time>
      </trkpt>
      <trkpt lat="43.55199" lon="2.37479">
        <ele>361.89204</ele>
        <time>2016-10-20T14:14:36Z</time>
      </trkpt>
      <trkpt lat="43.55191" lon="2.37483">
        <ele>359.39236666667</ele>
        <time>2016-10-20T14:14:50Z</time>
      </trkpt>
      <trkpt lat="43.55183" lon="2.37483">
        <ele>360.19268</ele>
        <time>2016-10-20T14:14:58Z</time>
      </trkpt>
      <trkpt lat="43.55174" lon="2.37485">
        <ele>360.69302666667</ele>
        <time>2016-10-20T14:15:06Z</time>
      </trkpt>
      <trkpt lat="43.55166" lon="2.37486">
        <ele>358.79338</ele>
        <time>2016-10-20T14:15:14Z</time>
      </trkpt>
      <trkpt lat="43.55157" lon="2.37485">
        <ele>355.59371333333</ele>
        <time>2016-10-20T14:15:23Z</time>
      </trkpt>
      <trkpt lat="43.55151" lon="2.37489">
        <ele>345.39396</ele>
        <time>2016-10-20T14:16:38Z</time>
      </trkpt>
      <trkpt lat="43.55147" lon="2.37487">
        <ele>346.59411333333</ele>
        <time>2016-10-20T14:17:23Z</time>
      </trkpt>
      <trkpt lat="43.55139" lon="2.37487">
        <ele>352.49446</ele>
        <time>2016-10-20T14:18:06Z</time>
      </trkpt>
      <trkpt lat="43.55137" lon="2.37475">
        <ele>357.19452666667</ele>
        <time>2016-10-20T14:19:02Z</time>
      </trkpt>
      <trkpt lat="43.55139" lon="2.37465">
        <ele>358.49444</ele>
        <time>2016-10-20T14:19:10Z</time>
      </trkpt>
      <trkpt lat="43.5514" lon="2.37453">
        <ele>362.19439333333</ele>
        <time>2016-10-20T14:19:16Z</time>
      </trkpt>
      <trkpt lat="43.55143" lon="2.37442">
        <ele>362.99429333333</ele>
        <time>2016-10-20T14:19:23Z</time>
      </trkpt>
      <trkpt lat="43.55147" lon="2.37431">
        <ele>359.39412666667</ele>
        <time>2016-10-20T14:19:30Z</time>
      </trkpt>
      <trkpt lat="43.5515" lon="2.3742">
        <ele>354.79402</ele>
        <time>2016-10-20T14:19:37Z</time>
      </trkpt>
      <trkpt lat="43.55154" lon="2.37411">
        <ele>351.39384</ele>
        <time>2016-10-20T14:19:43Z</time>
      </trkpt>
      <trkpt lat="43.55156" lon="2.37399">
        <ele>346.39376</ele>
        <time>2016-10-20T14:19:50Z</time>
      </trkpt>
      <trkpt lat="43.55159" lon="2.37388">
        <ele>340.69366</ele>
        <time>2016-10-20T14:19:58Z</time>
      </trkpt>
      <trkpt lat="43.55161" lon="2.37377">
        <ele>336.99358</ele>
        <time>2016-10-20T14:20:06Z</time>
      </trkpt>
      <trkpt lat="43.55164" lon="2.37367">
        <ele>336.59343333333</ele>
        <time>2016-10-20T14:20:13Z</time>
      </trkpt>
      <trkpt lat="43.55166" lon="2.37356">
        <ele>334.69335333333</ele>
        <time>2016-10-20T14:20:20Z</time>
      </trkpt>
      <trkpt lat="43.55168" lon="2.37345">
        <ele>334.59327333333</ele>
        <time>2016-10-20T14:20:28Z</time>
      </trkpt>
      <trkpt lat="43.55169" lon="2.37334">
        <ele>335.99323333333</ele>
        <time>2016-10-20T14:20:36Z</time>
      </trkpt>
      <trkpt lat="43.5517" lon="2.37324">
        <ele>337.09320666667</ele>
        <time>2016-10-20T14:20:42Z</time>
      </trkpt>
      <trkpt lat="43.55168" lon="2.37313">
        <ele>338.59327333333</ele>
        <time>2016-10-20T14:20:48Z</time>
      </trkpt>
      <trkpt lat="43.55168" lon="2.37301">
        <ele>340.09327333333</ele>
        <time>2016-10-20T14:20:56Z</time>
      </trkpt>
      <trkpt lat="43.55168" lon="2.37291">
        <ele>339.49329333333</ele>
        <time>2016-10-20T14:21:03Z</time>
      </trkpt>
      <trkpt lat="43.55167" lon="2.3728">
        <ele>339.29332</ele>
        <time>2016-10-20T14:21:09Z</time>
      </trkpt>
      <trkpt lat="43.55165" lon="2.37268">
        <ele>339.3934</ele>
        <time>2016-10-20T14:21:16Z</time>
      </trkpt>
      <trkpt lat="43.55161" lon="2.37258">
        <ele>337.99354666667</ele>
        <time>2016-10-20T14:21:24Z</time>
      </trkpt>
      <trkpt lat="43.55158" lon="2.37247">
        <ele>338.29367333333</ele>
        <time>2016-10-20T14:21:31Z</time>
      </trkpt>
      <trkpt lat="43.55154" lon="2.37237">
        <ele>337.29384666667</ele>
        <time>2016-10-20T14:21:39Z</time>
      </trkpt>
      <trkpt lat="43.55151" lon="2.37225">
        <ele>335.39398</ele>
        <time>2016-10-20T14:21:47Z</time>
      </trkpt>
      <trkpt lat="43.55148" lon="2.37214">
        <ele>334.59409333333</ele>
        <time>2016-10-20T14:21:55Z</time>
      </trkpt>
      <trkpt lat="43.55144" lon="2.37204">
        <ele>334.39423333333</ele>
        <time>2016-10-20T14:22:02Z</time>
      </trkpt>
      <trkpt lat="43.55139" lon="2.37194">
        <ele>333.59442666667</ele>
        <time>2016-10-20T14:22:09Z</time>
      </trkpt>
      <trkpt lat="43.55135" lon="2.37184">
        <ele>331.99461333333</ele>
        <time>2016-10-20T14:22:17Z</time>
      </trkpt>
      <trkpt lat="43.55132" lon="2.37174">
        <ele>330.49473333333</ele>
        <time>2016-10-20T14:22:24Z</time>
      </trkpt>
      <trkpt lat="43.55128" lon="2.37164">
        <ele>329.59487333333</ele>
        <time>2016-10-20T14:22:31Z</time>
      </trkpt>
      <trkpt lat="43.55126" lon="2.37152">
        <ele>329.79497333333</ele>
        <time>2016-10-20T14:22:38Z</time>
      </trkpt>
      <trkpt lat="43.55123" lon="2.37141">
        <ele>330.79508666667</ele>
        <time>2016-10-20T14:22:45Z</time>
      </trkpt>
      <trkpt lat="43.55121" lon="2.3713">
        <ele>331.69518</ele>
        <time>2016-10-20T14:22:52Z</time>
      </trkpt>
      <trkpt lat="43.55118" lon="2.37119">
        <ele>330.79528</ele>
        <time>2016-10-20T14:23:00Z</time>
      </trkpt>
      <trkpt lat="43.55113" lon="2.37109">
        <ele>328.59547333333</ele>
        <time>2016-10-20T14:23:09Z</time>
      </trkpt>
      <trkpt lat="43.55108" lon="2.371">
        <ele>326.69567333333</ele>
        <time>2016-10-20T14:23:16Z</time>
      </trkpt>
      <trkpt lat="43.55102" lon="2.37092">
        <ele>326.59592</ele>
        <time>2016-10-20T14:23:24Z</time>
      </trkpt>
      <trkpt lat="43.55095" lon="2.37084">
        <ele>324.99619333333</ele>
        <time>2016-10-20T14:23:32Z</time>
      </trkpt>
      <trkpt lat="43.5509" lon="2.37076">
        <ele>324.09640666667</ele>
        <time>2016-10-20T14:23:39Z</time>
      </trkpt>
      <trkpt lat="43.55084" lon="2.37067">
        <ele>324.49663333333</ele>
        <time>2016-10-20T14:23:47Z</time>
      </trkpt>
      <trkpt lat="43.55079" lon="2.37058">
        <ele>323.89685333333</ele>
        <time>2016-10-20T14:23:54Z</time>
      </trkpt>
      <trkpt lat="43.55073" lon="2.3705">
        <ele>323.59706666667</ele>
        <time>2016-10-20T14:24:00Z</time>
      </trkpt>
      <trkpt lat="43.55069" lon="2.37041">
        <ele>322.79726</ele>
        <time>2016-10-20T14:24:06Z</time>
      </trkpt>
      <trkpt lat="43.55065" lon="2.37031">
        <ele>320.79742</ele>
        <time>2016-10-20T14:24:13Z</time>
      </trkpt>
      <trkpt lat="43.55061" lon="2.3702">
        <ele>319.19756</ele>
        <time>2016-10-20T14:24:20Z</time>
      </trkpt>
      <trkpt lat="43.55059" lon="2.37008">
        <ele>320.09765333333</ele>
        <time>2016-10-20T14:24:27Z</time>
      </trkpt>
      <trkpt lat="43.55057" lon="2.36997">
        <ele>319.99773333333</ele>
        <time>2016-10-20T14:24:34Z</time>
      </trkpt>
      <trkpt lat="43.55056" lon="2.36986">
        <ele>319.29776666667</ele>
        <time>2016-10-20T14:24:42Z</time>
      </trkpt>
      <trkpt lat="43.55056" lon="2.36975">
        <ele>319.89777333333</ele>
        <time>2016-10-20T14:24:49Z</time>
      </trkpt>
      <trkpt lat="43.55056" lon="2.36964">
        <ele>318.09777333333</ele>
        <time>2016-10-20T14:24:56Z</time>
      </trkpt>
      <trkpt lat="43.55057" lon="2.36953">
        <ele>315.89770666667</ele>
        <time>2016-10-20T14:25:03Z</time>
      </trkpt>
      <trkpt lat="43.5506" lon="2.36942">
        <ele>315.19758666667</ele>
        <time>2016-10-20T14:25:11Z</time>
      </trkpt>
      <trkpt lat="43.55063" lon="2.36931">
        <ele>313.49749333333</ele>
        <time>2016-10-20T14:25:18Z</time>
      </trkpt>
      <trkpt lat="43.55066" lon="2.3692">
        <ele>311.89738</ele>
        <time>2016-10-20T14:25:25Z</time>
      </trkpt>
      <trkpt lat="43.5507" lon="2.36911">
        <ele>312.79719333333</ele>
        <time>2016-10-20T14:25:32Z</time>
      </trkpt>
      <trkpt lat="43.55075" lon="2.36902">
        <ele>313.89701333333</ele>
        <time>2016-10-20T14:25:39Z</time>
      </trkpt>
      <trkpt lat="43.55078" lon="2.36892">
        <ele>313.49688</ele>
        <time>2016-10-20T14:25:46Z</time>
      </trkpt>
      <trkpt lat="43.5508" lon="2.36881">
        <ele>313.79681333333</ele>
        <time>2016-10-20T14:25:54Z</time>
      </trkpt>
      <trkpt lat="43.55081" lon="2.36868">
        <ele>311.89676</ele>
        <time>2016-10-20T14:26:04Z</time>
      </trkpt>
      <trkpt lat="43.55085" lon="2.36858">
        <ele>312.09662</ele>
        <time>2016-10-20T14:26:12Z</time>
      </trkpt>
      <trkpt lat="43.55088" lon="2.36848">
        <ele>311.29647333333</ele>
        <time>2016-10-20T14:26:19Z</time>
      </trkpt>
      <trkpt lat="43.55091" lon="2.36837">
        <ele>309.29637333333</ele>
        <time>2016-10-20T14:26:26Z</time>
      </trkpt>
      <trkpt lat="43.55092" lon="2.36826">
        <ele>306.49632666667</ele>
        <time>2016-10-20T14:26:32Z</time>
      </trkpt>
      <trkpt lat="43.55094" lon="2.36814">
        <ele>307.49622666667</ele>
        <time>2016-10-20T14:26:39Z</time>
      </trkpt>
      <trkpt lat="43.55095" lon="2.36802">
        <ele>306.99618666667</ele>
        <time>2016-10-20T14:26:46Z</time>
      </trkpt>
      <trkpt lat="43.55097" lon="2.36791">
        <ele>308.09612666667</ele>
        <time>2016-10-20T14:26:53Z</time>
      </trkpt>
      <trkpt lat="43.55096" lon="2.36779">
        <ele>308.09615333333</ele>
        <time>2016-10-20T14:27:00Z</time>
      </trkpt>
      <trkpt lat="43.55096" lon="2.36769">
        <ele>307.59617333333</ele>
        <time>2016-10-20T14:27:06Z</time>
      </trkpt>
      <trkpt lat="43.55095" lon="2.36758">
        <ele>310.0962</ele>
        <time>2016-10-20T14:27:12Z</time>
      </trkpt>
      <trkpt lat="43.55097" lon="2.36747">
        <ele>314.99613333333</ele>
        <time>2016-10-20T14:27:18Z</time>
      </trkpt>
      <trkpt lat="43.55097" lon="2.36735">
        <ele>317.79613333333</ele>
        <time>2016-10-20T14:27:26Z</time>
      </trkpt>
      <trkpt lat="43.55095" lon="2.36723">
        <ele>316.99621333333</ele>
        <time>2016-10-20T14:27:33Z</time>
      </trkpt>
      <trkpt lat="43.55092" lon="2.36713">
        <ele>315.89630666667</ele>
        <time>2016-10-20T14:27:39Z</time>
      </trkpt>
      <trkpt lat="43.55091" lon="2.36702">
        <ele>314.59636666667</ele>
        <time>2016-10-20T14:27:46Z</time>
      </trkpt>
      <trkpt lat="43.55089" lon="2.36691">
        <ele>312.39644666667</ele>
        <time>2016-10-20T14:27:53Z</time>
      </trkpt>
      <trkpt lat="43.55087" lon="2.36679">
        <ele>311.39652666667</ele>
        <time>2016-10-20T14:28:01Z</time>
      </trkpt>
      <trkpt lat="43.55085" lon="2.36668">
        <ele>312.09659333333</ele>
        <time>2016-10-20T14:28:08Z</time>
      </trkpt>
      <trkpt lat="43.55084" lon="2.36656">
        <ele>310.69665333333</ele>
        <time>2016-10-20T14:28:15Z</time>
      </trkpt>
      <trkpt lat="43.55082" lon="2.36645">
        <ele>309.89674</ele>
        <time>2016-10-20T14:28:22Z</time>
      </trkpt>
      <trkpt lat="43.55079" lon="2.36635">
        <ele>308.79684</ele>
        <time>2016-10-20T14:28:28Z</time>
      </trkpt>
      <trkpt lat="43.55075" lon="2.36625">
        <ele>305.79698666667</ele>
        <time>2016-10-20T14:28:34Z</time>
      </trkpt>
      <trkpt lat="43.55072" lon="2.36614">
        <ele>304.09710666667</ele>
        <time>2016-10-20T14:28:41Z</time>
      </trkpt>
      <trkpt lat="43.55071" lon="2.36604">
        <ele>303.09717333333</ele>
        <time>2016-10-20T14:28:47Z</time>
      </trkpt>
      <trkpt lat="43.55068" lon="2.36593">
        <ele>303.99729333333</ele>
        <time>2016-10-20T14:28:54Z</time>
      </trkpt>
      <trkpt lat="43.55064" lon="2.36583">
        <ele>304.19744666667</ele>
        <time>2016-10-20T14:29:01Z</time>
      </trkpt>
      <trkpt lat="43.55062" lon="2.36572">
        <ele>304.29754</ele>
        <time>2016-10-20T14:29:08Z</time>
      </trkpt>
      <trkpt lat="43.55059" lon="2.36561">
        <ele>305.49764</ele>
        <time>2016-10-20T14:29:16Z</time>
      </trkpt>
      <trkpt lat="43.55056" lon="2.3655">
        <ele>305.29776</ele>
        <time>2016-10-20T14:29:23Z</time>
      </trkpt>
      <trkpt lat="43.55052" lon="2.3654">
        <ele>303.59792</ele>
        <time>2016-10-20T14:29:31Z</time>
      </trkpt>
      <trkpt lat="43.55048" lon="2.3653">
        <ele>304.29806666667</ele>
        <time>2016-10-20T14:29:38Z</time>
      </trkpt>
      <trkpt lat="43.55044" lon="2.3652">
        <ele>304.79824</ele>
        <time>2016-10-20T14:29:46Z</time>
      </trkpt>
      <trkpt lat="43.55039" lon="2.36509">
        <ele>305.79844</ele>
        <time>2016-10-20T14:29:54Z</time>
      </trkpt>
      <trkpt lat="43.55035" lon="2.365">
        <ele>305.9986</ele>
        <time>2016-10-20T14:30:01Z</time>
      </trkpt>
      <trkpt lat="43.55031" lon="2.36489">
        <ele>308.19877333333</ele>
        <time>2016-10-20T14:30:09Z</time>
      </trkpt>
      <trkpt lat="43.55026" lon="2.3648">
        <ele>307.99894666667</ele>
        <time>2016-10-20T14:30:16Z</time>
      </trkpt>
      <trkpt lat="43.55021" lon="2.36471">
        <ele>307.29918</ele>
        <time>2016-10-20T14:30:24Z</time>
      </trkpt>
      <trkpt lat="43.55015" lon="2.36462">
        <ele>308.69939333333</ele>
        <time>2016-10-20T14:30:31Z</time>
      </trkpt>
      <trkpt lat="43.55011" lon="2.36452">
        <ele>307.49957333333</ele>
        <time>2016-10-20T14:30:39Z</time>
      </trkpt>
      <trkpt lat="43.55006" lon="2.36442">
        <ele>313.29976666667</ele>
        <time>2016-10-20T14:30:50Z</time>
      </trkpt>
      <trkpt lat="43.55002" lon="2.36438">
        <ele>307.59991333333</ele>
        <time>2016-10-20T14:31:13Z</time>
      </trkpt>
      <trkpt lat="43.54999" lon="2.36431">
        <ele>307.70006</ele>
        <time>2016-10-20T14:31:33Z</time>
      </trkpt>
      <trkpt lat="43.54993" lon="2.36422">
        <ele>300.1003</ele>
        <time>2016-10-20T14:31:40Z</time>
      </trkpt>
      <trkpt lat="43.54986" lon="2.36416">
        <ele>302.50056666667</ele>
        <time>2016-10-20T14:31:47Z</time>
      </trkpt>
      <trkpt lat="43.5498" lon="2.36408">
        <ele>303.00080666667</ele>
        <time>2016-10-20T14:31:54Z</time>
      </trkpt>
      <trkpt lat="43.54974" lon="2.36399">
        <ele>306.50104</ele>
        <time>2016-10-20T14:32:03Z</time>
      </trkpt>
      <trkpt lat="43.54968" lon="2.36391">
        <ele>308.90126666667</ele>
        <time>2016-10-20T14:32:10Z</time>
      </trkpt>
      <trkpt lat="43.54963" lon="2.36382">
        <ele>309.4015</ele>
        <time>2016-10-20T14:32:17Z</time>
      </trkpt>
      <trkpt lat="43.54956" lon="2.36375">
        <ele>310.90176666667</ele>
        <time>2016-10-20T14:32:24Z</time>
      </trkpt>
      <trkpt lat="43.54949" lon="2.36368">
        <ele>310.50204</ele>
        <time>2016-10-20T14:32:35Z</time>
      </trkpt>
      <trkpt lat="43.54942" lon="2.36362">
        <ele>308.60230666667</ele>
        <time>2016-10-20T14:32:52Z</time>
      </trkpt>
      <trkpt lat="43.54935" lon="2.36355">
        <ele>312.10259333333</ele>
        <time>2016-10-20T14:33:00Z</time>
      </trkpt>
      <trkpt lat="43.54928" lon="2.36348">
        <ele>311.20286666667</ele>
        <time>2016-10-20T14:33:08Z</time>
      </trkpt>
      <trkpt lat="43.54922" lon="2.36342">
        <ele>309.90314</ele>
        <time>2016-10-20T14:33:15Z</time>
      </trkpt>
      <trkpt lat="43.54915" lon="2.36336">
        <ele>308.5034</ele>
        <time>2016-10-20T14:33:21Z</time>
      </trkpt>
      <trkpt lat="43.54908" lon="2.36329">
        <ele>307.40367333333</ele>
        <time>2016-10-20T14:33:27Z</time>
      </trkpt>
      <trkpt lat="43.54901" lon="2.36322">
        <ele>307.40395333333</ele>
        <time>2016-10-20T14:33:35Z</time>
      </trkpt>
      <trkpt lat="43.54894" lon="2.36316">
        <ele>305.90425333333</ele>
        <time>2016-10-20T14:33:42Z</time>
      </trkpt>
      <trkpt lat="43.54887" lon="2.36309">
        <ele>305.40454</ele>
        <time>2016-10-20T14:33:49Z</time>
      </trkpt>
      <trkpt lat="43.54879" lon="2.36302">
        <ele>306.90482666667</ele>
        <time>2016-10-20T14:33:56Z</time>
      </trkpt>
      <trkpt lat="43.54872" lon="2.36296">
        <ele>307.60511333333</ele>
        <time>2016-10-20T14:34:03Z</time>
      </trkpt>
      <trkpt lat="43.54865" lon="2.36292">
        <ele>309.30540666667</ele>
        <time>2016-10-20T14:34:09Z</time>
      </trkpt>
      <trkpt lat="43.54857" lon="2.36287">
        <ele>313.60572</ele>
        <time>2016-10-20T14:34:16Z</time>
      </trkpt>
      <trkpt lat="43.54849" lon="2.36282">
        <ele>315.70602666667</ele>
        <time>2016-10-20T14:34:26Z</time>
      </trkpt>
      <trkpt lat="43.54843" lon="2.36274">
        <ele>317.7063</ele>
        <time>2016-10-20T14:34:35Z</time>
      </trkpt>
      <trkpt lat="43.54836" lon="2.36267">
        <ele>318.20655333333</ele>
        <time>2016-10-20T14:34:44Z</time>
      </trkpt>
      <trkpt lat="43.5483" lon="2.36259">
        <ele>319.60678666667</ele>
        <time>2016-10-20T14:34:53Z</time>
      </trkpt>
      <trkpt lat="43.54826" lon="2.36249">
        <ele>319.10696</ele>
        <time>2016-10-20T14:35:03Z</time>
      </trkpt>
      <trkpt lat="43.54823" lon="2.36238">
        <ele>317.20707333333</ele>
        <time>2016-10-20T14:35:11Z</time>
      </trkpt>
      <trkpt lat="43.54822" lon="2.36226">
        <ele>316.30713333333</ele>
        <time>2016-10-20T14:35:19Z</time>
      </trkpt>
      <trkpt lat="43.54821" lon="2.36215">
        <ele>313.40715333333</ele>
        <time>2016-10-20T14:35:26Z</time>
      </trkpt>
      <trkpt lat="43.54821" lon="2.36203">
        <ele>311.00716</ele>
        <time>2016-10-20T14:35:34Z</time>
      </trkpt>
      <trkpt lat="43.54821" lon="2.36191">
        <ele>309.30716666667</ele>
        <time>2016-10-20T14:35:42Z</time>
      </trkpt>
      <trkpt lat="43.54821" lon="2.36179">
        <ele>308.00715333333</ele>
        <time>2016-10-20T14:35:50Z</time>
      </trkpt>
      <trkpt lat="43.5482" lon="2.3617">
        <ele>306.00718666667</ele>
        <time>2016-10-20T14:35:56Z</time>
      </trkpt>
      <trkpt lat="43.54818" lon="2.36158">
        <ele>306.20728</ele>
        <time>2016-10-20T14:36:00Z</time>
      </trkpt>
      <trkpt lat="43.54816" lon="2.36148">
        <ele>307.50735333333</ele>
        <time>2016-10-20T14:36:06Z</time>
      </trkpt>
      <trkpt lat="43.54814" lon="2.36137">
        <ele>307.80742666667</ele>
        <time>2016-10-20T14:36:14Z</time>
      </trkpt>
      <trkpt lat="43.54812" lon="2.36125">
        <ele>306.40751333333</ele>
        <time>2016-10-20T14:36:21Z</time>
      </trkpt>
      <trkpt lat="43.54812" lon="2.36114">
        <ele>304.10752</ele>
        <time>2016-10-20T14:36:29Z</time>
      </trkpt>
      <trkpt lat="43.54812" lon="2.36102">
        <ele>300.30751333333</ele>
        <time>2016-10-20T14:36:36Z</time>
      </trkpt>
      <trkpt lat="43.54814" lon="2.36092">
        <ele>297.20744666667</ele>
        <time>2016-10-20T14:36:44Z</time>
      </trkpt>
      <trkpt lat="43.54814" lon="2.3608">
        <ele>294.40746</ele>
        <time>2016-10-20T14:36:52Z</time>
      </trkpt>
      <trkpt lat="43.54812" lon="2.3607">
        <ele>294.00750666667</ele>
        <time>2016-10-20T14:37:02Z</time>
      </trkpt>
      <trkpt lat="43.54808" lon="2.36059">
        <ele>297.1077</ele>
        <time>2016-10-20T14:37:09Z</time>
      </trkpt>
      <trkpt lat="43.54801" lon="2.36052">
        <ele>301.10794666667</ele>
        <time>2016-10-20T14:37:15Z</time>
      </trkpt>
      <trkpt lat="43.54796" lon="2.36044">
        <ele>300.40816666667</ele>
        <time>2016-10-20T14:37:22Z</time>
      </trkpt>
      <trkpt lat="43.54789" lon="2.36037">
        <ele>300.80842666667</ele>
        <time>2016-10-20T14:37:29Z</time>
      </trkpt>
      <trkpt lat="43.54783" lon="2.36031">
        <ele>302.80869333333</ele>
        <time>2016-10-20T14:37:36Z</time>
      </trkpt>
      <trkpt lat="43.54776" lon="2.36025">
        <ele>304.20896666667</ele>
        <time>2016-10-20T14:37:44Z</time>
      </trkpt>
      <trkpt lat="43.5477" lon="2.36018">
        <ele>304.9092</ele>
        <time>2016-10-20T14:37:50Z</time>
      </trkpt>
      <trkpt lat="43.54763" lon="2.3601">
        <ele>305.00948</ele>
        <time>2016-10-20T14:37:57Z</time>
      </trkpt>
      <trkpt lat="43.54756" lon="2.36004">
        <ele>303.60974666667</ele>
        <time>2016-10-20T14:38:04Z</time>
      </trkpt>
      <trkpt lat="43.5475" lon="2.35996">
        <ele>301.91000666667</ele>
        <time>2016-10-20T14:38:13Z</time>
      </trkpt>
      <trkpt lat="43.54744" lon="2.35989">
        <ele>300.51024666667</ele>
        <time>2016-10-20T14:38:20Z</time>
      </trkpt>
      <trkpt lat="43.54736" lon="2.35982">
        <ele>300.71054666667</ele>
        <time>2016-10-20T14:38:28Z</time>
      </trkpt>
      <trkpt lat="43.54731" lon="2.35974">
        <ele>300.41077333333</ele>
        <time>2016-10-20T14:38:42Z</time>
      </trkpt>
      <trkpt lat="43.54724" lon="2.35966">
        <ele>299.81103333333</ele>
        <time>2016-10-20T14:39:03Z</time>
      </trkpt>
      <trkpt lat="43.54717" lon="2.3596">
        <ele>299.71132666667</ele>
        <time>2016-10-20T14:39:13Z</time>
      </trkpt>
      <trkpt lat="43.5471" lon="2.35954">
        <ele>299.21159333333</ele>
        <time>2016-10-20T14:39:20Z</time>
      </trkpt>
      <trkpt lat="43.54703" lon="2.35946">
        <ele>301.01186666667</ele>
        <time>2016-10-20T14:39:28Z</time>
      </trkpt>
      <trkpt lat="43.54697" lon="2.35939">
        <ele>301.81213333333</ele>
        <time>2016-10-20T14:39:36Z</time>
      </trkpt>
      <trkpt lat="43.54691" lon="2.35934">
        <ele>301.91238</ele>
        <time>2016-10-20T14:39:42Z</time>
      </trkpt>
      <trkpt lat="43.54684" lon="2.35926">
        <ele>301.61262666667</ele>
        <time>2016-10-20T14:39:49Z</time>
      </trkpt>
      <trkpt lat="43.54677" lon="2.35919">
        <ele>301.31290666667</ele>
        <time>2016-10-20T14:39:56Z</time>
      </trkpt>
      <trkpt lat="43.54671" lon="2.35911">
        <ele>301.91316</ele>
        <time>2016-10-20T14:40:03Z</time>
      </trkpt>
      <trkpt lat="43.54664" lon="2.35905">
        <ele>300.41343333333</ele>
        <time>2016-10-20T14:40:12Z</time>
      </trkpt>
      <trkpt lat="43.54658" lon="2.35898">
        <ele>299.21369333333</ele>
        <time>2016-10-20T14:40:20Z</time>
      </trkpt>
      <trkpt lat="43.54652" lon="2.3589">
        <ele>299.01392666667</ele>
        <time>2016-10-20T14:40:27Z</time>
      </trkpt>
      <trkpt lat="43.54646" lon="2.3588">
        <ele>297.71414666667</ele>
        <time>2016-10-20T14:40:34Z</time>
      </trkpt>
      <trkpt lat="43.5464" lon="2.35871">
        <ele>298.61438666667</ele>
        <time>2016-10-20T14:40:41Z</time>
      </trkpt>
      <trkpt lat="43.54635" lon="2.35862">
        <ele>298.31458666667</ele>
        <time>2016-10-20T14:40:48Z</time>
      </trkpt>
      <trkpt lat="43.5463" lon="2.35853">
        <ele>297.71481333333</ele>
        <time>2016-10-20T14:40:56Z</time>
      </trkpt>
      <trkpt lat="43.54624" lon="2.35843">
        <ele>299.31502666667</ele>
        <time>2016-10-20T14:41:05Z</time>
      </trkpt>
      <trkpt lat="43.54619" lon="2.35834">
        <ele>299.21522666667</ele>
        <time>2016-10-20T14:41:12Z</time>
      </trkpt>
      <trkpt lat="43.54613" lon="2.35827">
        <ele>301.01548666667</ele>
        <time>2016-10-20T14:41:19Z</time>
      </trkpt>
      <trkpt lat="43.54605" lon="2.3583">
        <ele>298.31580666667</ele>
        <time>2016-10-20T14:41:26Z</time>
      </trkpt>
      <trkpt lat="43.54598" lon="2.35837">
        <ele>297.41607333333</ele>
        <time>2016-10-20T14:41:33Z</time>
      </trkpt>
      <trkpt lat="43.54592" lon="2.35846">
        <ele>295.31632</ele>
        <time>2016-10-20T14:41:41Z</time>
      </trkpt>
      <trkpt lat="43.54586" lon="2.35855">
        <ele>297.11654666667</ele>
        <time>2016-10-20T14:41:50Z</time>
      </trkpt>
      <trkpt lat="43.5458" lon="2.35862">
        <ele>295.71681333333</ele>
        <time>2016-10-20T14:41:58Z</time>
      </trkpt>
      <trkpt lat="43.54572" lon="2.35866">
        <ele>295.91710666667</ele>
        <time>2016-10-20T14:42:04Z</time>
      </trkpt>
      <trkpt lat="43.54566" lon="2.35872">
        <ele>297.11738</ele>
        <time>2016-10-20T14:42:11Z</time>
      </trkpt>
      <trkpt lat="43.54559" lon="2.35879">
        <ele>298.31762666667</ele>
        <time>2016-10-20T14:42:19Z</time>
      </trkpt>
      <trkpt lat="43.54552" lon="2.35885">
        <ele>297.91794</ele>
        <time>2016-10-20T14:42:27Z</time>
      </trkpt>
      <trkpt lat="43.54544" lon="2.35889">
        <ele>298.61822666667</ele>
        <time>2016-10-20T14:42:33Z</time>
      </trkpt>
      <trkpt lat="43.54536" lon="2.35894">
        <ele>298.41856</ele>
        <time>2016-10-20T14:42:40Z</time>
      </trkpt>
      <trkpt lat="43.54528" lon="2.35898">
        <ele>300.01886666667</ele>
        <time>2016-10-20T14:42:46Z</time>
      </trkpt>
      <trkpt lat="43.5452" lon="2.359">
        <ele>299.41918666667</ele>
        <time>2016-10-20T14:42:54Z</time>
      </trkpt>
      <trkpt lat="43.54513" lon="2.35906">
        <ele>298.81946666667</ele>
        <time>2016-10-20T14:43:01Z</time>
      </trkpt>
      <trkpt lat="43.54505" lon="2.35911">
        <ele>297.11979333333</ele>
        <time>2016-10-20T14:43:09Z</time>
      </trkpt>
      <trkpt lat="43.54497" lon="2.35915">
        <ele>291.92012666667</ele>
        <time>2016-10-20T14:43:17Z</time>
      </trkpt>
      <trkpt lat="43.54489" lon="2.35915">
        <ele>292.82045333333</ele>
        <time>2016-10-20T14:43:24Z</time>
      </trkpt>
      <trkpt lat="43.5448" lon="2.35916">
        <ele>294.02078666667</ele>
        <time>2016-10-20T14:43:30Z</time>
      </trkpt>
      <trkpt lat="43.54472" lon="2.35915">
        <ele>296.32113333333</ele>
        <time>2016-10-20T14:43:36Z</time>
      </trkpt>
      <trkpt lat="43.54464" lon="2.35917">
        <ele>295.72144666667</ele>
        <time>2016-10-20T14:43:42Z</time>
      </trkpt>
      <trkpt lat="43.54455" lon="2.35917">
        <ele>296.9218</ele>
        <time>2016-10-20T14:43:48Z</time>
      </trkpt>
      <trkpt lat="43.54446" lon="2.35917">
        <ele>296.92214666667</ele>
        <time>2016-10-20T14:43:54Z</time>
      </trkpt>
      <trkpt lat="43.54438" lon="2.35917">
        <ele>297.82246666667</ele>
        <time>2016-10-20T14:44:00Z</time>
      </trkpt>
      <trkpt lat="43.5443" lon="2.35918">
        <ele>297.42281333333</ele>
        <time>2016-10-20T14:44:07Z</time>
      </trkpt>
      <trkpt lat="43.54422" lon="2.35923">
        <ele>295.42312</ele>
        <time>2016-10-20T14:44:15Z</time>
      </trkpt>
      <trkpt lat="43.54416" lon="2.35932">
        <ele>293.02334666667</ele>
        <time>2016-10-20T14:44:25Z</time>
      </trkpt>
      <trkpt lat="43.5441" lon="2.35937">
        <ele>293.42362</ele>
        <time>2016-10-20T14:44:32Z</time>
      </trkpt>
      <trkpt lat="43.54401" lon="2.35939">
        <ele>296.02394666667</ele>
        <time>2016-10-20T14:44:38Z</time>
      </trkpt>
      <trkpt lat="43.54394" lon="2.35943">
        <ele>297.42425333333</ele>
        <time>2016-10-20T14:44:45Z</time>
      </trkpt>
      <trkpt lat="43.54386" lon="2.35948">
        <ele>297.12457333333</ele>
        <time>2016-10-20T14:44:53Z</time>
      </trkpt>
      <trkpt lat="43.54377" lon="2.35952">
        <ele>297.52490666667</ele>
        <time>2016-10-20T14:45:01Z</time>
      </trkpt>
      <trkpt lat="43.5437" lon="2.35957">
        <ele>302.92519333333</ele>
        <time>2016-10-20T14:45:10Z</time>
      </trkpt>
      <trkpt lat="43.54363" lon="2.35962">
        <ele>308.72548666667</ele>
        <time>2016-10-20T14:45:19Z</time>
      </trkpt>
      <trkpt lat="43.54355" lon="2.35968">
        <ele>311.42578666667</ele>
        <time>2016-10-20T14:45:28Z</time>
      </trkpt>
      <trkpt lat="43.54348" lon="2.35972">
        <ele>311.12608</ele>
        <time>2016-10-20T14:45:35Z</time>
      </trkpt>
      <trkpt lat="43.5434" lon="2.35973">
        <ele>311.82640666667</ele>
        <time>2016-10-20T14:45:41Z</time>
      </trkpt>
      <trkpt lat="43.54332" lon="2.35971">
        <ele>312.32673333333</ele>
        <time>2016-10-20T14:45:47Z</time>
      </trkpt>
      <trkpt lat="43.54323" lon="2.35971">
        <ele>313.72708666667</ele>
        <time>2016-10-20T14:45:55Z</time>
      </trkpt>
      <trkpt lat="43.54315" lon="2.35974">
        <ele>314.02740666667</ele>
        <time>2016-10-20T14:46:05Z</time>
      </trkpt>
      <trkpt lat="43.54307" lon="2.35971">
        <ele>316.82772</ele>
        <time>2016-10-20T14:46:13Z</time>
      </trkpt>
      <trkpt lat="43.54301" lon="2.35963">
        <ele>318.32796</ele>
        <time>2016-10-20T14:46:19Z</time>
      </trkpt>
      <trkpt lat="43.54294" lon="2.35958">
        <ele>320.32825333333</ele>
        <time>2016-10-20T14:46:28Z</time>
      </trkpt>
      <trkpt lat="43.54286" lon="2.35955">
        <ele>322.32858</ele>
        <time>2016-10-20T14:46:37Z</time>
      </trkpt>
      <trkpt lat="43.54277" lon="2.35957">
        <ele>323.92890666667</ele>
        <time>2016-10-20T14:46:45Z</time>
      </trkpt>
      <trkpt lat="43.54269" lon="2.35958">
        <ele>324.52925333333</ele>
        <time>2016-10-20T14:46:53Z</time>
      </trkpt>
      <trkpt lat="43.54262" lon="2.35963">
        <ele>321.62953333333</ele>
        <time>2016-10-20T14:47:00Z</time>
      </trkpt>
      <trkpt lat="43.54253" lon="2.35964">
        <ele>313.62988</ele>
        <time>2016-10-20T14:47:08Z</time>
      </trkpt>
      <trkpt lat="43.54245" lon="2.35965">
        <ele>310.03020666667</ele>
        <time>2016-10-20T14:47:15Z</time>
      </trkpt>
      <trkpt lat="43.54236" lon="2.35964">
        <ele>309.73054666667</ele>
        <time>2016-10-20T14:47:24Z</time>
      </trkpt>
      <trkpt lat="43.54228" lon="2.35964">
        <ele>310.13087333333</ele>
        <time>2016-10-20T14:47:32Z</time>
      </trkpt>
      <trkpt lat="43.5422" lon="2.35965">
        <ele>310.13121333333</ele>
        <time>2016-10-20T14:47:40Z</time>
      </trkpt>
      <trkpt lat="43.54212" lon="2.35968">
        <ele>308.13152666667</ele>
        <time>2016-10-20T14:47:49Z</time>
      </trkpt>
      <trkpt lat="43.54203" lon="2.35967">
        <ele>307.03186666667</ele>
        <time>2016-10-20T14:47:59Z</time>
      </trkpt>
      <trkpt lat="43.54195" lon="2.35967">
        <ele>302.63222</ele>
        <time>2016-10-20T14:48:10Z</time>
      </trkpt>
      <trkpt lat="43.54193" lon="2.35967">
        <ele>301.6323</ele>
        <time>2016-10-20T14:48:19Z</time>
      </trkpt>
      <trkpt lat="43.54179" lon="2.35968">
        <ele>293.93284</ele>
        <time>2016-10-20T14:48:24Z</time>
      </trkpt>
      <trkpt lat="43.54172" lon="2.35965">
        <ele>292.23314</ele>
        <time>2016-10-20T14:48:29Z</time>
      </trkpt>
      <trkpt lat="43.54165" lon="2.3596">
        <ele>292.63342</ele>
        <time>2016-10-20T14:48:36Z</time>
      </trkpt>
      <trkpt lat="43.54157" lon="2.35956">
        <ele>294.43372666667</ele>
        <time>2016-10-20T14:48:42Z</time>
      </trkpt>
      <trkpt lat="43.54148" lon="2.35954">
        <ele>292.53407333333</ele>
        <time>2016-10-20T14:48:49Z</time>
      </trkpt>
      <trkpt lat="43.5414" lon="2.35953">
        <ele>291.8344</ele>
        <time>2016-10-20T14:48:56Z</time>
      </trkpt>
      <trkpt lat="43.54132" lon="2.35952">
        <ele>290.93473333333</ele>
        <time>2016-10-20T14:49:04Z</time>
      </trkpt>
      <trkpt lat="43.54124" lon="2.3595">
        <ele>289.93504666667</ele>
        <time>2016-10-20T14:49:12Z</time>
      </trkpt>
      <trkpt lat="43.54116" lon="2.35949">
        <ele>291.03537333333</ele>
        <time>2016-10-20T14:49:20Z</time>
      </trkpt>
      <trkpt lat="43.54108" lon="2.3595">
        <ele>289.5357</ele>
        <time>2016-10-20T14:49:28Z</time>
      </trkpt>
      <trkpt lat="43.541" lon="2.35947">
        <ele>288.33601333333</ele>
        <time>2016-10-20T14:49:33Z</time>
      </trkpt>
      <trkpt lat="43.54093" lon="2.35943">
        <ele>288.03629333333</ele>
        <time>2016-10-20T14:49:38Z</time>
      </trkpt>
      <trkpt lat="43.54085" lon="2.3594">
        <ele>287.43658666667</ele>
        <time>2016-10-20T14:49:43Z</time>
      </trkpt>
      <trkpt lat="43.54077" lon="2.35937">
        <ele>287.53692</ele>
        <time>2016-10-20T14:49:49Z</time>
      </trkpt>
      <trkpt lat="43.54069" lon="2.35934">
        <ele>290.43725333333</ele>
        <time>2016-10-20T14:49:56Z</time>
      </trkpt>
      <trkpt lat="43.5406" lon="2.35933">
        <ele>299.33760666667</ele>
        <time>2016-10-20T14:50:06Z</time>
      </trkpt>
      <trkpt lat="43.54052" lon="2.35932">
        <ele>298.83794</ele>
        <time>2016-10-20T14:50:14Z</time>
      </trkpt>
      <trkpt lat="43.54044" lon="2.3593">
        <ele>297.03823333333</ele>
        <time>2016-10-20T14:50:19Z</time>
      </trkpt>
      <trkpt lat="43.54036" lon="2.35926">
        <ele>293.73855333333</ele>
        <time>2016-10-20T14:50:25Z</time>
      </trkpt>
      <trkpt lat="43.54028" lon="2.35923">
        <ele>290.13888666667</ele>
        <time>2016-10-20T14:50:32Z</time>
      </trkpt>
      <trkpt lat="43.54019" lon="2.35919">
        <ele>292.33922666667</ele>
        <time>2016-10-20T14:50:40Z</time>
      </trkpt>
      <trkpt lat="43.54011" lon="2.35915">
        <ele>294.53954666667</ele>
        <time>2016-10-20T14:50:47Z</time>
      </trkpt>
      <trkpt lat="43.54003" lon="2.35914">
        <ele>295.63988</ele>
        <time>2016-10-20T14:50:56Z</time>
      </trkpt>
      <trkpt lat="43.53994" lon="2.35911">
        <ele>298.14022666667</ele>
        <time>2016-10-20T14:51:06Z</time>
      </trkpt>
      <trkpt lat="43.53995" lon="2.35899">
        <ele>279.34019333333</ele>
        <time>2016-10-20T14:51:53Z</time>
      </trkpt>
      <trkpt lat="43.53999" lon="2.35888">
        <ele>271.34005333333</ele>
        <time>2016-10-20T14:52:04Z</time>
      </trkpt>
      <trkpt lat="43.54005" lon="2.3588">
        <ele>267.13981333333</ele>
        <time>2016-10-20T14:52:13Z</time>
      </trkpt>
      <trkpt lat="43.5401" lon="2.35871">
        <ele>264.9396</ele>
        <time>2016-10-20T14:52:22Z</time>
      </trkpt>
      <trkpt lat="43.54017" lon="2.35864">
        <ele>264.83930666667</ele>
        <time>2016-10-20T14:52:31Z</time>
      </trkpt>
      <trkpt lat="43.54024" lon="2.35858">
        <ele>265.33903333333</ele>
        <time>2016-10-20T14:52:39Z</time>
      </trkpt>
      <trkpt lat="43.54031" lon="2.35851">
        <ele>264.63878</ele>
        <time>2016-10-20T14:52:46Z</time>
      </trkpt>
      <trkpt lat="43.54037" lon="2.35844">
        <ele>265.13854</ele>
        <time>2016-10-20T14:52:52Z</time>
      </trkpt>
      <trkpt lat="43.54043" lon="2.35836">
        <ele>263.83829333333</ele>
        <time>2016-10-20T14:52:59Z</time>
      </trkpt>
      <trkpt lat="43.54049" lon="2.35829">
        <ele>261.83804</ele>
        <time>2016-10-20T14:53:07Z</time>
      </trkpt>
      <trkpt lat="43.54055" lon="2.35821">
        <ele>260.2378</ele>
        <time>2016-10-20T14:53:16Z</time>
      </trkpt>
      <trkpt lat="43.54061" lon="2.35813">
        <ele>260.23756</ele>
        <time>2016-10-20T14:53:24Z</time>
      </trkpt>
      <trkpt lat="43.54068" lon="2.35806">
        <ele>260.73729333333</ele>
        <time>2016-10-20T14:53:31Z</time>
      </trkpt>
      <trkpt lat="43.54074" lon="2.35799">
        <ele>260.93704666667</ele>
        <time>2016-10-20T14:53:39Z</time>
      </trkpt>
      <trkpt lat="43.5408" lon="2.35791">
        <ele>258.9368</ele>
        <time>2016-10-20T14:53:48Z</time>
      </trkpt>
      <trkpt lat="43.54087" lon="2.35784">
        <ele>255.43652666667</ele>
        <time>2016-10-20T14:53:56Z</time>
      </trkpt>
      <trkpt lat="43.54094" lon="2.35776">
        <ele>251.73625333333</ele>
        <time>2016-10-20T14:54:06Z</time>
      </trkpt>
      <trkpt lat="43.54098" lon="2.35766">
        <ele>248.93608666667</ele>
        <time>2016-10-20T14:54:19Z</time>
      </trkpt>
      <trkpt lat="43.54104" lon="2.35759">
        <ele>248.43584</ele>
        <time>2016-10-20T14:54:29Z</time>
      </trkpt>
      <trkpt lat="43.54112" lon="2.35753">
        <ele>250.03554</ele>
        <time>2016-10-20T14:54:34Z</time>
      </trkpt>
      <trkpt lat="43.54119" lon="2.35747">
        <ele>250.03523333333</ele>
        <time>2016-10-20T14:54:43Z</time>
      </trkpt>
      <trkpt lat="43.54127" lon="2.35741">
        <ele>251.43493333333</ele>
        <time>2016-10-20T14:54:49Z</time>
      </trkpt>
      <trkpt lat="43.54134" lon="2.35737">
        <ele>251.73462666667</ele>
        <time>2016-10-20T14:54:57Z</time>
      </trkpt>
      <trkpt lat="43.54141" lon="2.35731">
        <ele>251.83435333333</ele>
        <time>2016-10-20T14:55:06Z</time>
      </trkpt>
      <trkpt lat="43.54149" lon="2.35724">
        <ele>252.83406</ele>
        <time>2016-10-20T14:55:15Z</time>
      </trkpt>
      <trkpt lat="43.54154" lon="2.35717">
        <ele>252.93382666667</ele>
        <time>2016-10-20T14:55:28Z</time>
      </trkpt>
      <trkpt lat="43.5416" lon="2.35708">
        <ele>252.53360666667</ele>
        <time>2016-10-20T14:55:38Z</time>
      </trkpt>
      <trkpt lat="43.54165" lon="2.35698">
        <ele>251.13339333333</ele>
        <time>2016-10-20T14:55:48Z</time>
      </trkpt>
      <trkpt lat="43.5417" lon="2.35687">
        <ele>251.93321333333</ele>
        <time>2016-10-20T14:55:58Z</time>
      </trkpt>
      <trkpt lat="43.54172" lon="2.35675">
        <ele>252.93312</ele>
        <time>2016-10-20T14:56:12Z</time>
      </trkpt>
      <trkpt lat="43.54176" lon="2.35666">
        <ele>252.83297333333</ele>
        <time>2016-10-20T14:56:20Z</time>
      </trkpt>
      <trkpt lat="43.5418" lon="2.35656">
        <ele>255.13280666667</ele>
        <time>2016-10-20T14:56:25Z</time>
      </trkpt>
      <trkpt lat="43.54185" lon="2.35648">
        <ele>252.43259333333</ele>
        <time>2016-10-20T14:56:33Z</time>
      </trkpt>
      <trkpt lat="43.5419" lon="2.35638">
        <ele>257.2324</ele>
        <time>2016-10-20T14:56:41Z</time>
      </trkpt>
      <trkpt lat="43.54192" lon="2.35628">
        <ele>266.83234</ele>
        <time>2016-10-20T14:56:47Z</time>
      </trkpt>
      <trkpt lat="43.54195" lon="2.35617">
        <ele>274.53219333333</ele>
        <time>2016-10-20T14:57:04Z</time>
      </trkpt>
      <trkpt lat="43.542" lon="2.35607">
        <ele>275.832</ele>
        <time>2016-10-20T14:57:12Z</time>
      </trkpt>
      <trkpt lat="43.54205" lon="2.35597">
        <ele>272.53182</ele>
        <time>2016-10-20T14:57:21Z</time>
      </trkpt>
      <trkpt lat="43.54211" lon="2.35589">
        <ele>276.53158</ele>
        <time>2016-10-20T14:57:31Z</time>
      </trkpt>
      <trkpt lat="43.54217" lon="2.35581">
        <ele>278.03131333333</ele>
        <time>2016-10-20T14:57:40Z</time>
      </trkpt>
      <trkpt lat="43.54223" lon="2.35572">
        <ele>275.83106666667</ele>
        <time>2016-10-20T14:57:48Z</time>
      </trkpt>
      <trkpt lat="43.5423" lon="2.35564">
        <ele>270.5308</ele>
        <time>2016-10-20T14:57:55Z</time>
      </trkpt>
      <trkpt lat="43.54238" lon="2.35558">
        <ele>269.4305</ele>
        <time>2016-10-20T14:58:05Z</time>
      </trkpt>
      <trkpt lat="43.54245" lon="2.35552">
        <ele>257.73019333333</ele>
        <time>2016-10-20T14:58:30Z</time>
      </trkpt>
      <trkpt lat="43.54252" lon="2.35546">
        <ele>251.02990666667</ele>
        <time>2016-10-20T14:58:43Z</time>
      </trkpt>
      <trkpt lat="43.54259" lon="2.3554">
        <ele>253.12966</ele>
        <time>2016-10-20T14:58:52Z</time>
      </trkpt>
      <trkpt lat="43.54265" lon="2.35533">
        <ele>255.62939333333</ele>
        <time>2016-10-20T14:58:57Z</time>
      </trkpt>
      <trkpt lat="43.54272" lon="2.35529">
        <ele>259.02912</ele>
        <time>2016-10-20T14:59:04Z</time>
      </trkpt>
      <trkpt lat="43.54279" lon="2.35523">
        <ele>262.22884</ele>
        <time>2016-10-20T14:59:09Z</time>
      </trkpt>
      <trkpt lat="43.54288" lon="2.35522">
        <ele>268.7285</ele>
        <time>2016-10-20T14:59:19Z</time>
      </trkpt>
      <trkpt lat="43.54293" lon="2.35514">
        <ele>277.82826666667</ele>
        <time>2016-10-20T14:59:26Z</time>
      </trkpt>
      <trkpt lat="43.54301" lon="2.35509">
        <ele>275.82796666667</ele>
        <time>2016-10-20T14:59:36Z</time>
      </trkpt>
      <trkpt lat="43.54306" lon="2.35499">
        <ele>268.42776</ele>
        <time>2016-10-20T14:59:48Z</time>
      </trkpt>
      <trkpt lat="43.54314" lon="2.35497">
        <ele>268.02742666667</ele>
        <time>2016-10-20T14:59:54Z</time>
      </trkpt>
      <trkpt lat="43.54323" lon="2.35495">
        <ele>267.52708666667</ele>
        <time>2016-10-20T15:00:01Z</time>
      </trkpt>
      <trkpt lat="43.54331" lon="2.35492">
        <ele>270.42674666667</ele>
        <time>2016-10-20T15:00:08Z</time>
      </trkpt>
      <trkpt lat="43.54339" lon="2.35485">
        <ele>274.72644666667</ele>
        <time>2016-10-20T15:00:23Z</time>
      </trkpt>
      <trkpt lat="43.54347" lon="2.3548">
        <ele>266.72614</ele>
        <time>2016-10-20T15:00:38Z</time>
      </trkpt>
      <trkpt lat="43.54353" lon="2.35472">
        <ele>266.62588</ele>
        <time>2016-10-20T15:00:46Z</time>
      </trkpt>
      <trkpt lat="43.54354" lon="2.35464">
        <ele>268.92584</ele>
        <time>2016-10-20T15:01:01Z</time>
      </trkpt>
      <trkpt lat="43.5436" lon="2.35456">
        <ele>265.92558666667</ele>
        <time>2016-10-20T15:01:06Z</time>
      </trkpt>
      <trkpt lat="43.54365" lon="2.35445">
        <ele>272.82541333333</ele>
        <time>2016-10-20T15:01:15Z</time>
      </trkpt>
      <trkpt lat="43.5437" lon="2.35435">
        <ele>273.32522</ele>
        <time>2016-10-20T15:01:26Z</time>
      </trkpt>
      <trkpt lat="43.54372" lon="2.35426">
        <ele>273.52512666667</ele>
        <time>2016-10-20T15:01:43Z</time>
      </trkpt>
      <trkpt lat="43.54377" lon="2.3541">
        <ele>270.32493333333</ele>
        <time>2016-10-20T15:01:48Z</time>
      </trkpt>
      <trkpt lat="43.54378" lon="2.35399">
        <ele>270.22488666667</ele>
        <time>2016-10-20T15:01:56Z</time>
      </trkpt>
      <trkpt lat="43.5438" lon="2.35388">
        <ele>273.12480666667</ele>
        <time>2016-10-20T15:02:02Z</time>
      </trkpt>
      <trkpt lat="43.5438" lon="2.35376">
        <ele>272.7248</ele>
        <time>2016-10-20T15:02:14Z</time>
      </trkpt>
      <trkpt lat="43.54383" lon="2.35366">
        <ele>276.12467333333</ele>
        <time>2016-10-20T15:02:22Z</time>
      </trkpt>
      <trkpt lat="43.54384" lon="2.35354">
        <ele>273.82462666667</ele>
        <time>2016-10-20T15:02:28Z</time>
      </trkpt>
      <trkpt lat="43.54387" lon="2.35344">
        <ele>266.12451333333</ele>
        <time>2016-10-20T15:02:34Z</time>
      </trkpt>
      <trkpt lat="43.54393" lon="2.35334">
        <ele>267.02428666667</ele>
        <time>2016-10-20T15:02:39Z</time>
      </trkpt>
      <trkpt lat="43.54398" lon="2.35325">
        <ele>264.42407333333</ele>
        <time>2016-10-20T15:02:47Z</time>
      </trkpt>
      <trkpt lat="43.54402" lon="2.35318">
        <ele>261.62394</ele>
        <time>2016-10-20T15:03:01Z</time>
      </trkpt>
      <trkpt lat="43.54407" lon="2.3531">
        <ele>258.52372</ele>
        <time>2016-10-20T15:03:06Z</time>
      </trkpt>
      <trkpt lat="43.54412" lon="2.353">
        <ele>258.32354</ele>
        <time>2016-10-20T15:03:12Z</time>
      </trkpt>
      <trkpt lat="43.54417" lon="2.35291">
        <ele>258.62333333333</ele>
        <time>2016-10-20T15:03:18Z</time>
      </trkpt>
      <trkpt lat="43.54422" lon="2.35281">
        <ele>258.02313333333</ele>
        <time>2016-10-20T15:03:25Z</time>
      </trkpt>
      <trkpt lat="43.54428" lon="2.35272">
        <ele>262.22289333333</ele>
        <time>2016-10-20T15:03:33Z</time>
      </trkpt>
      <trkpt lat="43.54429" lon="2.35265">
        <ele>261.62283333333</ele>
        <time>2016-10-20T15:03:52Z</time>
      </trkpt>
      <trkpt lat="43.54438" lon="2.35252">
        <ele>262.32248666667</ele>
        <time>2016-10-20T15:03:56Z</time>
      </trkpt>
      <trkpt lat="43.54443" lon="2.35242">
        <ele>260.9223</ele>
        <time>2016-10-20T15:04:04Z</time>
      </trkpt>
      <trkpt lat="43.54447" lon="2.35232">
        <ele>259.72212666667</ele>
        <time>2016-10-20T15:04:15Z</time>
      </trkpt>
      <trkpt lat="43.54453" lon="2.35225">
        <ele>259.82187333333</ele>
        <time>2016-10-20T15:04:33Z</time>
      </trkpt>
      <trkpt lat="43.54456" lon="2.3521">
        <ele>258.22176666667</ele>
        <time>2016-10-20T15:04:38Z</time>
      </trkpt>
      <trkpt lat="43.54458" lon="2.35202">
        <ele>256.92168666667</ele>
        <time>2016-10-20T15:04:45Z</time>
      </trkpt>
      <trkpt lat="43.5446" lon="2.3519">
        <ele>260.72158666667</ele>
        <time>2016-10-20T15:04:50Z</time>
      </trkpt>
      <trkpt lat="43.54464" lon="2.35181">
        <ele>261.12144</ele>
        <time>2016-10-20T15:04:56Z</time>
      </trkpt>
      <trkpt lat="43.54469" lon="2.35171">
        <ele>260.02125333333</ele>
        <time>2016-10-20T15:05:04Z</time>
      </trkpt>
      <trkpt lat="43.54474" lon="2.35161">
        <ele>257.52102666667</ele>
        <time>2016-10-20T15:05:12Z</time>
      </trkpt>
      <trkpt lat="43.54479" lon="2.35151">
        <ele>256.12086</ele>
        <time>2016-10-20T15:05:20Z</time>
      </trkpt>
      <trkpt lat="43.54481" lon="2.3514">
        <ele>256.72076666667</ele>
        <time>2016-10-20T15:05:34Z</time>
      </trkpt>
      <trkpt lat="43.54488" lon="2.35132">
        <ele>254.62049333333</ele>
        <time>2016-10-20T15:05:41Z</time>
      </trkpt>
      <trkpt lat="43.54494" lon="2.35124">
        <ele>253.42024666667</ele>
        <time>2016-10-20T15:05:46Z</time>
      </trkpt>
      <trkpt lat="43.545" lon="2.35116">
        <ele>254.12</ele>
        <time>2016-10-20T15:05:51Z</time>
      </trkpt>
      <trkpt lat="43.54506" lon="2.35107">
        <ele>256.31978</ele>
        <time>2016-10-20T15:05:57Z</time>
      </trkpt>
      <trkpt lat="43.54511" lon="2.351">
        <ele>260.11955333333</ele>
        <time>2016-10-20T15:06:03Z</time>
      </trkpt>
      <trkpt lat="43.54518" lon="2.35094">
        <ele>262.91927333333</ele>
        <time>2016-10-20T15:06:11Z</time>
      </trkpt>
      <trkpt lat="43.54525" lon="2.35088">
        <ele>265.119</ele>
        <time>2016-10-20T15:06:16Z</time>
      </trkpt>
      <trkpt lat="43.54532" lon="2.35081">
        <ele>266.01873333333</ele>
        <time>2016-10-20T15:06:23Z</time>
      </trkpt>
      <trkpt lat="43.54539" lon="2.35075">
        <ele>265.81845333333</ele>
        <time>2016-10-20T15:06:30Z</time>
      </trkpt>
      <trkpt lat="43.54546" lon="2.35072">
        <ele>264.91815333333</ele>
        <time>2016-10-20T15:06:36Z</time>
      </trkpt>
      <trkpt lat="43.54554" lon="2.35072">
        <ele>265.51784666667</ele>
        <time>2016-10-20T15:06:42Z</time>
      </trkpt>
      <trkpt lat="43.54562" lon="2.35066">
        <ele>268.81754</ele>
        <time>2016-10-20T15:06:53Z</time>
      </trkpt>
      <trkpt lat="43.54564" lon="2.35055">
        <ele>268.51743333333</ele>
        <time>2016-10-20T15:07:03Z</time>
      </trkpt>
      <trkpt lat="43.54566" lon="2.35043">
        <ele>268.41735333333</ele>
        <time>2016-10-20T15:07:14Z</time>
      </trkpt>
      <trkpt lat="43.54569" lon="2.35032">
        <ele>268.01724666667</ele>
        <time>2016-10-20T15:07:21Z</time>
      </trkpt>
      <trkpt lat="43.54572" lon="2.35023">
        <ele>269.81710666667</ele>
        <time>2016-10-20T15:07:27Z</time>
      </trkpt>
      <trkpt lat="43.54577" lon="2.35012">
        <ele>270.11691333333</ele>
        <time>2016-10-20T15:07:33Z</time>
      </trkpt>
      <trkpt lat="43.5458" lon="2.35002">
        <ele>273.11682</ele>
        <time>2016-10-20T15:07:40Z</time>
      </trkpt>
      <trkpt lat="43.54581" lon="2.34995">
        <ele>274.81678</ele>
        <time>2016-10-20T15:07:50Z</time>
      </trkpt>
      <trkpt lat="43.54581" lon="2.34995">
        <ele>274.81678</ele>
        <time>2016-10-20T15:07:51Z</time>
      </trkpt>
    </trkseg>
  </trk>
</gpx>